PWSweather.com
Personal Weather Stations
Station Observations
DL5ARK
SonnebergDE

SonnebergDE

Lat: 50.34904861, Lon: 11.18112087

Elevation: 1214

Station Type: Selfmade

http://www.sumbarg.de

High Low Average
Temperature 58.1°F14.5°F 50.0°F10.0°F 52.9°F11.6°F
Dew Point 57.6°F14.2°F 50.4°F10.2°F 53.8°F12.1°F
Winds 12.1 mph -19.5 mph - Calm Calm 3.5 mph 5.6 mph
Wind Gusts 12.2 mph19.6 mph -- 3.5 mph5.6 mph
Humidity 88% 71% 81%
Pressure 29.90 in1012.50 in 29.72 in1006.40 in -
Precipitation 0.00 in0.00 in - -
Hour Temp Dew Point Humidity Winds Wind Gusts Pressure Precip Precip Rate Daily Precip Total
12:02 AM 55.6°F13.1°C 57.4°F14.1°C 86% 1.6 mph NNW2.6 kmh NNW 1.6 mph2.6 kmh 29.72 in1006.4 mb 0.00 in0.0 mm 0.00 in0.0 mm 0.00 in0.0 mm
12:05 AM 55.5°F13.1°C 57.6°F14.2°C 86% 1.2 mph NW1.9 kmh NW 1.2 mph1.9 kmh 29.72 in1006.4 mb 0.00 in0.0 mm 0.00 in0.0 mm 0.00 in0.0 mm
12:08 AM 55.5°F13.1°C 57.5°F14.2°C 86% 3.2 mph WNW5.1 kmh WNW 3.2 mph5.1 kmh 29.72 in1006.4 mb 0.00 in0.0 mm 0.00 in0.0 mm 0.00 in0.0 mm
12:11 AM 55.4°F13.0°C 57.5°F14.2°C 86% 3.6 mph NNW5.8 kmh NNW 3.6 mph5.8 kmh 29.72 in1006.4 mb 0.00 in0.0 mm 0.00 in0.0 mm 0.00 in0.0 mm
12:14 AM 55.4°F13.0°C 57.6°F14.2°C 86% 2.3 mph NW3.7 kmh NW 2.3 mph3.7 kmh 29.72 in1006.4 mb 0.00 in0.0 mm 0.00 in0.0 mm 0.00 in0.0 mm
12:17 AM 55.3°F12.9°C 57.5°F14.2°C 85% 2.0 mph W3.2 kmh W 2.0 mph3.2 kmh 29.72 in1006.4 mb 0.00 in0.0 mm 0.00 in0.0 mm 0.00 in0.0 mm
12:20 AM 55.3°F12.9°C 57.6°F14.2°C 86% 3.4 mph NNW5.5 kmh NNW 3.7 mph6.0 kmh 29.72 in1006.4 mb 0.00 in0.0 mm 0.00 in0.0 mm 0.00 in0.0 mm
12:23 AM 55.3°F12.9°C 57.3°F14.1°C 85% 2.8 mph W4.5 kmh W 2.8 mph4.5 kmh 29.73 in1006.8 mb 0.00 in0.0 mm 0.00 in0.0 mm 0.00 in0.0 mm
12:29 AM 55.1°F12.8°C 57.6°F14.2°C 85% 5.2 mph W8.4 kmh W 5.2 mph8.4 kmh 29.74 in1007.1 mb 0.00 in0.0 mm 0.00 in0.0 mm 0.00 in0.0 mm
12:32 AM 55.0°F12.8°C 57.5°F14.2°C 85% 7.8 mph W12.6 kmh W 7.8 mph12.6 kmh 29.74 in1007.1 mb 0.00 in0.0 mm 0.00 in0.0 mm 0.00 in0.0 mm
12:35 AM 55.1°F12.8°C 57.4°F14.1°C 85% 4.5 mph NNW7.2 kmh NNW 4.5 mph7.2 kmh 29.74 in1007.1 mb 0.00 in0.0 mm 0.00 in0.0 mm 0.00 in0.0 mm
12:38 AM 55.0°F12.8°C 57.3°F14.1°C 85% 4.0 mph NW6.4 kmh NW 4.0 mph6.4 kmh 29.75 in1007.5 mb 0.00 in0.0 mm 0.00 in0.0 mm 0.00 in0.0 mm
12:41 AM 55.0°F12.8°C 57.2°F14.0°C 85% 3.8 mph NW6.1 kmh NW 3.9 mph6.3 kmh 29.75 in1007.5 mb 0.00 in0.0 mm 0.00 in0.0 mm 0.00 in0.0 mm
12:44 AM 54.8°F12.7°C 57.1°F13.9°C 85% 8.4 mph NNW13.5 kmh NNW 8.5 mph13.7 kmh 29.75 in1007.5 mb 0.00 in0.0 mm 0.00 in0.0 mm 0.00 in0.0 mm
12:47 AM 54.8°F12.7°C 56.8°F13.8°C 84% 4.4 mph W7.1 kmh W 4.5 mph7.2 kmh 29.75 in1007.5 mb 0.00 in0.0 mm 0.00 in0.0 mm 0.00 in0.0 mm
12:50 AM 54.7°F12.6°C 57.2°F14.0°C 85% 3.6 mph W5.8 kmh W 3.7 mph6.0 kmh 29.75 in1007.5 mb 0.00 in0.0 mm 0.00 in0.0 mm 0.00 in0.0 mm
12:53 AM 54.7°F12.6°C 57.1°F13.9°C 85% 1.5 mph NNW2.4 kmh NNW 1.5 mph2.4 kmh 29.75 in1007.5 mb 0.00 in0.0 mm 0.00 in0.0 mm 0.00 in0.0 mm
12:56 AM 54.6°F12.6°C 57.2°F14.0°C 85% 6.1 mph NW9.8 kmh NW 6.1 mph9.8 kmh 29.75 in1007.5 mb 0.00 in0.0 mm 0.00 in0.0 mm 0.00 in0.0 mm
12:59 AM 54.5°F12.5°C 57.1°F13.9°C 85% 6.4 mph W10.3 kmh W 6.5 mph10.5 kmh 29.75 in1007.5 mb 0.00 in0.0 mm 0.00 in0.0 mm 0.00 in0.0 mm
01:02 AM 54.4°F12.4°C 57.1°F13.9°C 86% 8.1 mph NW13.0 kmh NW 8.1 mph13.0 kmh 29.76 in1007.8 mb 0.00 in0.0 mm 0.00 in0.0 mm 0.02 in0.5 mm
01:05 AM 54.3°F12.4°C 57.1°F13.9°C 86% 7.2 mph W11.6 kmh W 7.3 mph11.7 kmh 29.76 in1007.8 mb 0.00 in0.0 mm 0.00 in0.0 mm 0.02 in0.5 mm
01:08 AM 54.2°F12.3°C 57.1°F13.9°C 86% 2.4 mph W3.9 kmh W 2.4 mph3.9 kmh 29.75 in1007.5 mb 0.00 in0.0 mm 0.00 in0.0 mm 0.02 in0.5 mm
01:11 AM 54.2°F12.3°C 57.1°F13.9°C 86% 6.4 mph W10.3 kmh W 6.5 mph10.5 kmh 29.76 in1007.8 mb 0.00 in0.0 mm 0.00 in0.0 mm 0.02 in0.5 mm
01:14 AM 54.2°F12.3°C 56.8°F13.8°C 86% 2.7 mph NW4.3 kmh NW 2.7 mph4.3 kmh 29.76 in1007.8 mb 0.00 in0.0 mm 0.00 in0.0 mm 0.02 in0.5 mm
01:17 AM 54.1°F12.3°C 57.0°F13.9°C 86% 6.9 mph NNW11.1 kmh NNW 7.0 mph11.3 kmh 29.76 in1007.8 mb 0.00 in0.0 mm 0.00 in0.0 mm 0.02 in0.5 mm
01:20 AM 53.9°F12.2°C 56.9°F13.8°C 86% 3.2 mph NNW5.1 kmh NNW 3.2 mph5.1 kmh 29.77 in1008.1 mb 0.00 in0.0 mm 0.00 in0.0 mm 0.04 in1.0 mm
01:23 AM 53.9°F12.2°C 57.0°F13.9°C 86% 3.8 mph W6.1 kmh W 3.9 mph6.3 kmh 29.76 in1007.8 mb 0.00 in0.0 mm 0.00 in0.0 mm 0.04 in1.0 mm
01:26 AM 53.8°F12.1°C 56.9°F13.8°C 86% 2.0 mph WSW3.2 kmh WSW 2.0 mph3.2 kmh 29.76 in1007.8 mb 0.00 in0.0 mm 0.00 in0.0 mm 0.04 in1.0 mm
01:29 AM 53.8°F12.1°C 56.9°F13.8°C 86% 3.4 mph W5.5 kmh W 3.4 mph5.5 kmh 29.77 in1008.1 mb 0.00 in0.0 mm 0.00 in0.0 mm 0.04 in1.0 mm
01:32 AM 53.8°F12.1°C 56.9°F13.8°C 86% 4.0 mph W6.4 kmh W 4.0 mph6.4 kmh 29.76 in1007.8 mb 0.00 in0.0 mm 0.00 in0.0 mm 0.04 in1.0 mm
01:35 AM 53.8°F12.1°C 56.9°F13.8°C 86% 3.1 mph W5.0 kmh W 3.1 mph5.0 kmh 29.77 in1008.1 mb 0.00 in0.0 mm 0.00 in0.0 mm 0.04 in1.0 mm
01:38 AM 53.8°F12.1°C 57.0°F13.9°C 87% 4.8 mph W7.7 kmh W 4.8 mph7.7 kmh 29.77 in1008.1 mb 0.00 in0.0 mm 0.00 in0.0 mm 0.04 in1.0 mm
01:41 AM 53.7°F12.1°C 57.0°F13.9°C 87% 6.4 mph NNW10.3 kmh NNW 6.5 mph10.5 kmh 29.77 in1008.1 mb 0.00 in0.0 mm 0.00 in0.0 mm 0.04 in1.0 mm
01:44 AM 53.7°F12.1°C 57.0°F13.9°C 87% 5.3 mph WNW8.5 kmh WNW 5.3 mph8.5 kmh 29.77 in1008.1 mb 0.00 in0.0 mm 0.00 in0.0 mm 0.04 in1.0 mm
01:47 AM 53.7°F12.1°C 56.9°F13.8°C 87% 4.4 mph W7.1 kmh W 4.4 mph7.1 kmh 29.77 in1008.1 mb 0.00 in0.0 mm 0.00 in0.0 mm 0.04 in1.0 mm
01:50 AM 53.7°F12.1°C 57.0°F13.9°C 87% 4.6 mph NNW7.4 kmh NNW 4.6 mph7.4 kmh 29.77 in1008.1 mb 0.00 in0.0 mm 0.00 in0.0 mm 0.04 in1.0 mm
01:53 AM 53.7°F12.1°C 57.2°F14.0°C 87% 3.2 mph W5.1 kmh W 3.2 mph5.1 kmh 29.77 in1008.1 mb 0.00 in0.0 mm 0.00 in0.0 mm 0.04 in1.0 mm
01:56 AM 53.7°F12.1°C 56.8°F13.8°C 87% 5.6 mph W9.0 kmh W 5.6 mph9.0 kmh 29.77 in1008.1 mb 0.00 in0.0 mm 0.00 in0.0 mm 0.04 in1.0 mm
01:59 AM 53.7°F12.1°C 56.9°F13.8°C 87% 0.8 mph SSE1.3 kmh SSE 0.8 mph1.3 kmh 29.77 in1008.1 mb 0.00 in0.0 mm 0.00 in0.0 mm 0.04 in1.0 mm
02:02 AM 53.6°F12.0°C 57.0°F13.9°C 87% 2.0 mph W3.2 kmh W 2.0 mph3.2 kmh 29.77 in1008.1 mb 0.00 in0.0 mm 0.00 in0.0 mm 0.04 in1.0 mm
02:05 AM 53.7°F12.1°C 56.8°F13.8°C 87% 2.7 mph WSW4.3 kmh WSW 2.7 mph4.3 kmh 29.77 in1008.1 mb 0.00 in0.0 mm 0.00 in0.0 mm 0.04 in1.0 mm
02:08 AM 53.6°F12.0°C 56.9°F13.8°C 87% 2.0 mph NW3.2 kmh NW 2.0 mph3.2 kmh 29.77 in1008.1 mb 0.00 in0.0 mm 0.00 in0.0 mm 0.04 in1.0 mm
02:11 AM 53.6°F12.0°C 57.1°F13.9°C 87% 2.0 mph W3.2 kmh W 2.0 mph3.2 kmh 29.77 in1008.1 mb 0.00 in0.0 mm 0.00 in0.0 mm 0.04 in1.0 mm
02:14 AM 53.6°F12.0°C 57.1°F13.9°C 87% 3.1 mph NW5.0 kmh NW 3.3 mph5.3 kmh 29.77 in1008.1 mb 0.00 in0.0 mm 0.00 in0.0 mm 0.04 in1.0 mm
02:17 AM 53.6°F12.0°C 57.0°F13.9°C 87% 4.5 mph W7.2 kmh W 4.5 mph7.2 kmh 29.77 in1008.1 mb 0.00 in0.0 mm 0.00 in0.0 mm 0.04 in1.0 mm
02:20 AM 53.5°F11.9°C 56.8°F13.8°C 86% 4.8 mph NW7.7 kmh NW 4.8 mph7.7 kmh 29.77 in1008.1 mb 0.00 in0.0 mm 0.00 in0.0 mm 0.04 in1.0 mm
02:23 AM 53.5°F11.9°C 56.7°F13.7°C 87% 2.8 mph SW4.5 kmh SW 2.9 mph4.7 kmh 29.75 in1007.5 mb 0.00 in0.0 mm 0.00 in0.0 mm 0.04 in1.0 mm
02:26 AM 53.5°F11.9°C 56.9°F13.8°C 87% 2.8 mph W4.5 kmh W 2.9 mph4.7 kmh 29.76 in1007.8 mb 0.00 in0.0 mm 0.00 in0.0 mm 0.06 in1.5 mm
02:29 AM 53.5°F11.9°C 56.9°F13.8°C 87% 1.9 mph NNW3.1 kmh NNW 2.0 mph3.2 kmh 29.76 in1007.8 mb 0.00 in0.0 mm 0.00 in0.0 mm 0.06 in1.5 mm
02:32 AM 53.5°F11.9°C 57.0°F13.9°C 87% 1.2 mph WNW1.9 kmh WNW 1.2 mph1.9 kmh 29.76 in1007.8 mb 0.00 in0.0 mm 0.00 in0.0 mm 0.06 in1.5 mm
02:35 AM 53.5°F11.9°C 56.8°F13.8°C 87% 7.2 mph NNW11.6 kmh NNW 7.2 mph11.6 kmh 29.77 in1008.1 mb 0.00 in0.0 mm 0.00 in0.0 mm 0.06 in1.5 mm
02:38 AM 53.5°F11.9°C 56.9°F13.8°C 87% 1.1 mph WNW1.8 kmh WNW 1.2 mph1.9 kmh 29.76 in1007.8 mb 0.00 in0.0 mm 0.00 in0.0 mm 0.06 in1.5 mm
02:41 AM 53.5°F11.9°C 57.1°F13.9°C 88% 0.4 mph 0.6 kmh 0.4 mph0.6 kmh 29.76 in1007.8 mb 0.00 in0.0 mm 0.00 in0.0 mm 0.06 in1.5 mm
02:44 AM 53.5°F11.9°C 56.5°F13.6°C 87% 3.6 mph WNW5.8 kmh WNW 3.7 mph6.0 kmh 29.76 in1007.8 mb 0.00 in0.0 mm 0.00 in0.0 mm 0.06 in1.5 mm
02:47 AM 53.4°F11.9°C 56.9°F13.8°C 87% 7.6 mph NNW12.2 kmh NNW 7.6 mph12.2 kmh 29.77 in1008.1 mb 0.00 in0.0 mm 0.00 in0.0 mm 0.06 in1.5 mm
02:50 AM 53.4°F11.9°C 56.8°F13.8°C 87% 6.8 mph W10.9 kmh W 6.8 mph10.9 kmh 29.77 in1008.1 mb 0.00 in0.0 mm 0.00 in0.0 mm 0.06 in1.5 mm
02:53 AM 53.4°F11.9°C 56.9°F13.8°C 88% 4.4 mph W7.1 kmh W 4.5 mph7.2 kmh 29.77 in1008.1 mb 0.00 in0.0 mm 0.00 in0.0 mm 0.06 in1.5 mm
02:56 AM 53.4°F11.9°C 56.8°F13.8°C 87% 4.4 mph WNW7.1 kmh WNW 4.5 mph7.2 kmh 29.77 in1008.1 mb 0.00 in0.0 mm 0.00 in0.0 mm 0.06 in1.5 mm
02:59 AM 53.3°F11.8°C 56.5°F13.6°C 87% 4.6 mph NNW7.4 kmh NNW 4.9 mph7.9 kmh 29.77 in1008.1 mb 0.00 in0.0 mm 0.00 in0.0 mm 0.06 in1.5 mm
03:02 AM 53.4°F11.9°C 56.7°F13.7°C 88% 5.2 mph W8.4 kmh W 5.2 mph8.4 kmh 29.77 in1008.1 mb 0.00 in0.0 mm 0.00 in0.0 mm 0.06 in1.5 mm
03:05 AM 53.3°F11.8°C 56.5°F13.6°C 87% 5.6 mph NNW9.0 kmh NNW 5.6 mph9.0 kmh 29.77 in1008.1 mb 0.00 in0.0 mm 0.00 in0.0 mm 0.06 in1.5 mm
03:11 AM 53.4°F11.9°C 56.6°F13.7°C 88% 6.5 mph WSW10.5 kmh WSW 6.5 mph10.5 kmh 29.77 in1008.1 mb 0.00 in0.0 mm 0.00 in0.0 mm 0.06 in1.5 mm
03:14 AM 53.5°F11.9°C 56.7°F13.7°C 87% 9.3 mph WSW15.0 kmh WSW 9.3 mph15.0 kmh 29.77 in1008.1 mb 0.00 in0.0 mm 0.00 in0.0 mm 0.06 in1.5 mm
03:17 AM 53.4°F11.9°C 56.5°F13.6°C 87% 4.5 mph W7.2 kmh W 4.5 mph7.2 kmh 29.77 in1008.1 mb 0.00 in0.0 mm 0.00 in0.0 mm 0.06 in1.5 mm
03:20 AM 53.4°F11.9°C 56.4°F13.6°C 87% 8.0 mph W12.9 kmh W 8.0 mph12.9 kmh 29.77 in1008.1 mb 0.00 in0.0 mm 0.00 in0.0 mm 0.06 in1.5 mm
03:23 AM 53.3°F11.8°C 56.8°F13.8°C 88% 10.8 mph WSW17.4 kmh WSW 10.9 mph17.5 kmh 29.77 in1008.1 mb 0.00 in0.0 mm 0.00 in0.0 mm 0.06 in1.5 mm
03:26 AM 53.0°F11.7°C 56.5°F13.6°C 88% 11.9 mph W19.2 kmh W 12.0 mph19.3 kmh 29.78 in1008.5 mb 0.00 in0.0 mm 0.00 in0.0 mm 0.06 in1.5 mm
03:29 AM 52.8°F11.6°C 56.1°F13.4°C 87% 10.1 mph NW16.3 kmh NW 10.2 mph16.4 kmh 29.78 in1008.5 mb 0.00 in0.0 mm 0.00 in0.0 mm 0.06 in1.5 mm
03:35 AM 52.6°F11.4°C 55.6°F13.1°C 87% 0.0 mph NNW0.0 kmh NNW 0.0 mph0.0 kmh 29.78 in1008.5 mb 0.00 in0.0 mm 0.00 in0.0 mm 0.06 in1.5 mm
03:41 AM 52.1°F11.2°C 55.1°F12.8°C 86% 2.8 mph NW4.5 kmh NW 2.8 mph4.5 kmh 29.78 in1008.5 mb 0.00 in0.0 mm 0.00 in0.0 mm 0.06 in1.5 mm
03:44 AM 52.0°F11.1°C 55.4°F13.0°C 86% 8.7 mph NW14.0 kmh NW 8.7 mph14.0 kmh 29.79 in1008.8 mb 0.00 in0.0 mm 0.00 in0.0 mm 0.06 in1.5 mm
03:47 AM 52.0°F11.1°C 55.1°F12.8°C 86% 9.5 mph WNW15.3 kmh WNW 9.5 mph15.3 kmh 29.79 in1008.8 mb 0.00 in0.0 mm 0.00 in0.0 mm 0.06 in1.5 mm
03:50 AM 51.8°F11.0°C 55.1°F12.8°C 86% 4.4 mph NNW7.1 kmh NNW 4.4 mph7.1 kmh 29.78 in1008.5 mb 0.00 in0.0 mm 0.00 in0.0 mm 0.06 in1.5 mm
03:53 AM 51.7°F10.9°C 54.9°F12.7°C 86% 8.9 mph NW14.3 kmh NW 9.0 mph14.5 kmh 29.79 in1008.8 mb 0.00 in0.0 mm 0.00 in0.0 mm 0.06 in1.5 mm
03:59 AM 51.4°F10.8°C 54.5°F12.5°C 85% 6.4 mph NNW10.3 kmh NNW 6.4 mph10.3 kmh 29.79 in1008.8 mb 0.00 in0.0 mm 0.00 in0.0 mm 0.06 in1.5 mm
04:02 AM 51.2°F10.7°C 54.5°F12.5°C 86% 5.3 mph NNW8.5 kmh NNW 5.3 mph8.5 kmh 29.79 in1008.8 mb 0.00 in0.0 mm 0.00 in0.0 mm 0.06 in1.5 mm
04:05 AM 51.1°F10.6°C 54.5°F12.5°C 86% 5.7 mph NW9.2 kmh NW 5.7 mph9.2 kmh 29.79 in1008.8 mb 0.00 in0.0 mm 0.00 in0.0 mm 0.06 in1.5 mm
04:08 AM 51.0°F10.6°C 54.0°F12.2°C 86% 11.9 mph NW19.2 kmh NW 12.0 mph19.3 kmh 29.80 in1009.1 mb 0.00 in0.0 mm 0.00 in0.0 mm 0.06 in1.5 mm
04:11 AM 51.0°F10.6°C 54.2°F12.3°C 86% 4.6 mph NNW7.4 kmh NNW 4.7 mph7.6 kmh 29.80 in1009.1 mb 0.00 in0.0 mm 0.00 in0.0 mm 0.06 in1.5 mm
04:14 AM 50.9°F10.5°C 54.0°F12.2°C 85% 4.9 mph NNW7.9 kmh NNW 4.9 mph7.9 kmh 29.81 in1009.5 mb 0.00 in0.0 mm 0.00 in0.0 mm 0.06 in1.5 mm
04:17 AM 50.9°F10.5°C 54.3°F12.4°C 86% 2.4 mph NW3.9 kmh NW 2.5 mph4.0 kmh 29.80 in1009.1 mb 0.00 in0.0 mm 0.00 in0.0 mm 0.06 in1.5 mm
04:20 AM 50.8°F10.4°C 54.1°F12.3°C 86% 4.4 mph WNW7.1 kmh WNW 4.4 mph7.1 kmh 29.80 in1009.1 mb 0.00 in0.0 mm 0.00 in0.0 mm 0.06 in1.5 mm
04:23 AM 50.6°F10.3°C 54.0°F12.2°C 86% 5.7 mph SW9.2 kmh SW 5.7 mph9.2 kmh 29.80 in1009.1 mb 0.00 in0.0 mm 0.00 in0.0 mm 0.06 in1.5 mm
04:26 AM 50.6°F10.3°C 54.2°F12.3°C 86% 3.2 mph W5.1 kmh W 3.3 mph5.3 kmh 29.81 in1009.5 mb 0.00 in0.0 mm 0.00 in0.0 mm 0.06 in1.5 mm
04:29 AM 50.5°F10.3°C 54.0°F12.2°C 86% 4.5 mph NNW7.2 kmh NNW 4.5 mph7.2 kmh 29.81 in1009.5 mb 0.00 in0.0 mm 0.00 in0.0 mm 0.06 in1.5 mm
04:32 AM 50.5°F10.3°C 53.9°F12.2°C 86% 2.7 mph WNW4.3 kmh WNW 2.7 mph4.3 kmh 29.81 in1009.5 mb 0.00 in0.0 mm 0.00 in0.0 mm 0.06 in1.5 mm
04:35 AM 50.5°F10.3°C 53.9°F12.2°C 86% 5.0 mph NNW8.0 kmh NNW 5.0 mph8.0 kmh 29.81 in1009.5 mb 0.00 in0.0 mm 0.00 in0.0 mm 0.06 in1.5 mm
04:38 AM 50.5°F10.3°C 54.0°F12.2°C 86% 4.0 mph NNW6.4 kmh NNW 4.0 mph6.4 kmh 29.81 in1009.5 mb 0.00 in0.0 mm 0.00 in0.0 mm 0.06 in1.5 mm
04:41 AM 50.5°F10.3°C 54.0°F12.2°C 86% 2.0 mph WNW3.2 kmh WNW 2.0 mph3.2 kmh 29.81 in1009.5 mb 0.00 in0.0 mm 0.00 in0.0 mm 0.06 in1.5 mm
04:44 AM 50.5°F10.3°C 54.0°F12.2°C 86% 2.0 mph NW3.2 kmh NW 2.0 mph3.2 kmh 29.81 in1009.5 mb 0.00 in0.0 mm 0.00 in0.0 mm 0.06 in1.5 mm
04:47 AM 50.6°F10.3°C 54.2°F12.3°C 86% 4.4 mph NNW7.1 kmh NNW 4.4 mph7.1 kmh 29.81 in1009.5 mb 0.00 in0.0 mm 0.00 in0.0 mm 0.06 in1.5 mm
04:53 AM 50.6°F10.3°C 53.6°F12.0°C 85% 2.4 mph NNW3.9 kmh NNW 2.4 mph3.9 kmh 29.81 in1009.5 mb 0.00 in0.0 mm 0.00 in0.0 mm 0.06 in1.5 mm
04:56 AM 50.5°F10.3°C 53.9°F12.2°C 86% 1.6 mph NNW2.6 kmh NNW 1.6 mph2.6 kmh 29.81 in1009.5 mb 0.00 in0.0 mm 0.00 in0.0 mm 0.06 in1.5 mm
04:59 AM 50.5°F10.3°C 53.8°F12.1°C 86% 2.4 mph 3.9 kmh 2.5 mph4.0 kmh 29.81 in1009.5 mb 0.00 in0.0 mm 0.00 in0.0 mm 0.06 in1.5 mm
05:02 AM 50.5°F10.3°C 54.1°F12.3°C 86% 2.4 mph NNW3.9 kmh NNW 2.4 mph3.9 kmh 29.82 in1009.8 mb 0.00 in0.0 mm 0.00 in0.0 mm 0.06 in1.5 mm
05:05 AM 50.5°F10.3°C 53.6°F12.0°C 86% 0.8 mph NNW1.3 kmh NNW 0.8 mph1.3 kmh 29.82 in1009.8 mb 0.00 in0.0 mm 0.00 in0.0 mm 0.06 in1.5 mm
05:11 AM 50.3°F10.2°C 53.7°F12.1°C 86% 2.4 mph W3.9 kmh W 2.5 mph4.0 kmh 29.82 in1009.8 mb 0.00 in0.0 mm 0.00 in0.0 mm 0.06 in1.5 mm
05:14 AM 50.3°F10.2°C 53.7°F12.1°C 86% 4.0 mph NNW6.4 kmh NNW 4.0 mph6.4 kmh 29.82 in1009.8 mb 0.00 in0.0 mm 0.00 in0.0 mm 0.06 in1.5 mm
05:17 AM 50.3°F10.2°C 53.7°F12.1°C 86% 2.4 mph 3.9 kmh 2.5 mph4.0 kmh 29.82 in1009.8 mb 0.00 in0.0 mm 0.00 in0.0 mm 0.06 in1.5 mm
05:20 AM 50.3°F10.2°C 53.6°F12.0°C 86% 9.3 mph NW15.0 kmh NW 9.4 mph15.1 kmh 29.82 in1009.8 mb 0.00 in0.0 mm 0.00 in0.0 mm 0.06 in1.5 mm
05:23 AM 50.2°F10.1°C 53.5°F11.9°C 86% 5.3 mph WNW8.5 kmh WNW 5.3 mph8.5 kmh 29.82 in1009.8 mb 0.00 in0.0 mm 0.00 in0.0 mm 0.06 in1.5 mm
05:26 AM 50.3°F10.2°C 53.3°F11.8°C 86% 2.0 mph NNW3.2 kmh NNW 2.0 mph3.2 kmh 29.83 in1010.2 mb 0.00 in0.0 mm 0.00 in0.0 mm 0.06 in1.5 mm
05:29 AM 50.2°F10.1°C 53.7°F12.1°C 86% 4.7 mph WNW7.6 kmh WNW 4.7 mph7.6 kmh 29.83 in1010.2 mb 0.00 in0.0 mm 0.00 in0.0 mm 0.06 in1.5 mm
05:32 AM 50.2°F10.1°C 53.5°F11.9°C 86% 3.1 mph NW5.0 kmh NW 3.1 mph5.0 kmh 29.83 in1010.2 mb 0.00 in0.0 mm 0.00 in0.0 mm 0.06 in1.5 mm
05:35 AM 50.2°F10.1°C 53.7°F12.1°C 86% 4.9 mph W7.9 kmh W 4.9 mph7.9 kmh 29.83 in1010.2 mb 0.00 in0.0 mm 0.00 in0.0 mm 0.08 in2.0 mm
05:38 AM 50.2°F10.1°C 53.6°F12.0°C 86% 2.8 mph NNW4.5 kmh NNW 2.9 mph4.7 kmh 29.83 in1010.2 mb 0.00 in0.0 mm 0.00 in0.0 mm 0.08 in2.0 mm
05:41 AM 50.1°F10.1°C 53.3°F11.8°C 86% 3.2 mph W5.1 kmh W 3.2 mph5.1 kmh 29.83 in1010.2 mb 0.00 in0.0 mm 0.00 in0.0 mm 0.08 in2.0 mm
05:44 AM 50.1°F10.1°C 53.5°F11.9°C 86% 2.8 mph W4.5 kmh W 2.9 mph4.7 kmh 29.83 in1010.2 mb 0.00 in0.0 mm 0.00 in0.0 mm 0.08 in2.0 mm
05:47 AM 50.1°F10.1°C 53.4°F11.9°C 86% 3.6 mph WSW5.8 kmh WSW 3.6 mph5.8 kmh 29.83 in1010.2 mb 0.00 in0.0 mm 0.00 in0.0 mm 0.08 in2.0 mm
05:50 AM 50.1°F10.1°C 53.7°F12.1°C 86% 3.5 mph WNW5.6 kmh WNW 3.6 mph5.8 kmh 29.83 in1010.2 mb 0.00 in0.0 mm 0.00 in0.0 mm 0.08 in2.0 mm
05:53 AM 50.1°F10.1°C 53.5°F11.9°C 86% 2.7 mph W4.3 kmh W 2.7 mph4.3 kmh 29.83 in1010.2 mb 0.00 in0.0 mm 0.00 in0.0 mm 0.08 in2.0 mm
05:56 AM 50.1°F10.1°C 53.5°F11.9°C 86% 4.9 mph W7.9 kmh W 4.9 mph7.9 kmh 29.83 in1010.2 mb 0.00 in0.0 mm 0.00 in0.0 mm 0.08 in2.0 mm
05:59 AM 50.1°F10.1°C 53.5°F11.9°C 86% 1.6 mph W2.6 kmh W 1.6 mph2.6 kmh 29.83 in1010.2 mb 0.00 in0.0 mm 0.00 in0.0 mm 0.08 in2.0 mm
06:05 AM 50.1°F10.1°C 53.6°F12.0°C 86% 3.2 mph WNW5.1 kmh WNW 3.2 mph5.1 kmh 29.83 in1010.2 mb 0.00 in0.0 mm 0.00 in0.0 mm 0.08 in2.0 mm
06:08 AM 50.1°F10.1°C 53.5°F11.9°C 86% 3.2 mph WNW5.1 kmh WNW 3.3 mph5.3 kmh 29.83 in1010.2 mb 0.00 in0.0 mm 0.00 in0.0 mm 0.08 in2.0 mm
06:11 AM 50.1°F10.1°C 53.5°F11.9°C 86% 2.8 mph NW4.5 kmh NW 2.8 mph4.5 kmh 29.83 in1010.2 mb 0.00 in0.0 mm 0.00 in0.0 mm 0.08 in2.0 mm
06:14 AM 50.1°F10.1°C 53.6°F12.0°C 87% 4.7 mph WNW7.6 kmh WNW 4.7 mph7.6 kmh 29.83 in1010.2 mb 0.00 in0.0 mm 0.00 in0.0 mm 0.08 in2.0 mm
06:17 AM 50.1°F10.1°C 53.6°F12.0°C 87% 4.1 mph W6.6 kmh W 4.1 mph6.6 kmh 29.83 in1010.2 mb 0.00 in0.0 mm 0.00 in0.0 mm 0.08 in2.0 mm
06:23 AM 50.1°F10.1°C 53.4°F11.9°C 86% 2.4 mph WNW3.9 kmh WNW 2.4 mph3.9 kmh 29.83 in1010.2 mb 0.00 in0.0 mm 0.00 in0.0 mm 0.08 in2.0 mm
06:26 AM 50.1°F10.1°C 53.6°F12.0°C 87% 4.6 mph NW7.4 kmh NW 4.6 mph7.4 kmh 29.83 in1010.2 mb 0.00 in0.0 mm 0.00 in0.0 mm 0.10 in2.5 mm
06:29 AM 50.1°F10.1°C 53.7°F12.1°C 87% 3.8 mph NNW6.1 kmh NNW 3.8 mph6.1 kmh 29.83 in1010.2 mb 0.00 in0.0 mm 0.00 in0.0 mm 0.10 in2.5 mm
06:32 AM 50.2°F10.1°C 53.6°F12.0°C 87% 4.4 mph W7.1 kmh W 4.5 mph7.2 kmh 29.83 in1010.2 mb 0.00 in0.0 mm 0.00 in0.0 mm 0.10 in2.5 mm
06:35 AM 50.2°F10.1°C 54.0°F12.2°C 87% 4.0 mph W6.4 kmh W 4.0 mph6.4 kmh 29.83 in1010.2 mb 0.00 in0.0 mm 0.00 in0.0 mm 0.10 in2.5 mm
06:38 AM 50.2°F10.1°C 53.3°F11.8°C 87% 3.6 mph W5.8 kmh W 3.7 mph6.0 kmh 29.83 in1010.2 mb 0.00 in0.0 mm 0.00 in0.0 mm 0.10 in2.5 mm
06:41 AM 50.2°F10.1°C 53.3°F11.8°C 87% 4.8 mph SW7.7 kmh SW 4.8 mph7.7 kmh 29.83 in1010.2 mb 0.00 in0.0 mm 0.00 in0.0 mm 0.10 in2.5 mm
06:44 AM 50.2°F10.1°C 53.7°F12.1°C 87% 3.2 mph WSW5.1 kmh WSW 3.3 mph5.3 kmh 29.83 in1010.2 mb 0.00 in0.0 mm 0.00 in0.0 mm 0.10 in2.5 mm
06:47 AM 50.3°F10.2°C 53.5°F11.9°C 87% 3.5 mph S5.6 kmh S 3.7 mph6.0 kmh 29.83 in1010.2 mb 0.00 in0.0 mm 0.00 in0.0 mm 0.10 in2.5 mm
06:50 AM 50.2°F10.1°C 53.4°F11.9°C 87% 3.1 mph W5.0 kmh W 3.1 mph5.0 kmh 29.84 in1010.5 mb 0.00 in0.0 mm 0.00 in0.0 mm 0.10 in2.5 mm
06:53 AM 50.2°F10.1°C 53.5°F11.9°C 87% 4.8 mph NNW7.7 kmh NNW 4.9 mph7.9 kmh 29.84 in1010.5 mb 0.00 in0.0 mm 0.00 in0.0 mm 0.10 in2.5 mm
06:59 AM 50.2°F10.1°C 53.5°F11.9°C 87% 4.4 mph WSW7.1 kmh WSW 4.4 mph7.1 kmh 29.85 in1010.8 mb 0.00 in0.0 mm 0.00 in0.0 mm 0.10 in2.5 mm
07:02 AM 50.3°F10.2°C 53.4°F11.9°C 87% 9.7 mph W15.6 kmh W 9.8 mph15.8 kmh 29.84 in1010.5 mb 0.00 in0.0 mm 0.00 in0.0 mm 0.10 in2.5 mm
07:05 AM 50.3°F10.2°C 53.4°F11.9°C 87% 2.8 mph W4.5 kmh W 2.8 mph4.5 kmh 29.85 in1010.8 mb 0.00 in0.0 mm 0.00 in0.0 mm 0.10 in2.5 mm
07:08 AM 50.3°F10.2°C 53.4°F11.9°C 87% 4.4 mph SW7.1 kmh SW 4.4 mph7.1 kmh 29.85 in1010.8 mb 0.00 in0.0 mm 0.00 in0.0 mm 0.10 in2.5 mm
07:11 AM 50.3°F10.2°C 53.2°F11.8°C 87% 5.0 mph WSW8.0 kmh WSW 5.0 mph8.0 kmh 29.85 in1010.8 mb 0.00 in0.0 mm 0.00 in0.0 mm 0.10 in2.5 mm
07:17 AM 50.3°F10.2°C 53.4°F11.9°C 87% 1.1 mph SW1.8 kmh SW 1.2 mph1.9 kmh 29.85 in1010.8 mb 0.00 in0.0 mm 0.00 in0.0 mm 0.10 in2.5 mm
07:20 AM 50.5°F10.3°C 53.4°F11.9°C 87% 4.9 mph WSW7.9 kmh WSW 4.9 mph7.9 kmh 29.85 in1010.8 mb 0.00 in0.0 mm 0.00 in0.0 mm 0.10 in2.5 mm
07:23 AM 50.3°F10.2°C 53.3°F11.8°C 87% 3.2 mph WNW5.1 kmh WNW 3.3 mph5.3 kmh 29.85 in1010.8 mb 0.00 in0.0 mm 0.00 in0.0 mm 0.10 in2.5 mm
07:26 AM 50.3°F10.2°C 53.4°F11.9°C 87% 2.4 mph NNW3.9 kmh NNW 2.4 mph3.9 kmh 29.85 in1010.8 mb 0.00 in0.0 mm 0.00 in0.0 mm 0.10 in2.5 mm
07:29 AM 50.5°F10.3°C 53.3°F11.8°C 87% 7.2 mph WNW11.6 kmh WNW 7.2 mph11.6 kmh 29.85 in1010.8 mb 0.00 in0.0 mm 0.00 in0.0 mm 0.10 in2.5 mm
07:35 AM 50.5°F10.3°C 53.4°F11.9°C 87% 2.7 mph W4.3 kmh W 2.9 mph4.7 kmh 29.86 in1011.2 mb 0.00 in0.0 mm 0.00 in0.0 mm 0.10 in2.5 mm
07:38 AM 50.5°F10.3°C 53.5°F11.9°C 87% 5.3 mph W8.5 kmh W 5.3 mph8.5 kmh 29.86 in1011.2 mb 0.00 in0.0 mm 0.00 in0.0 mm 0.10 in2.5 mm
07:41 AM 50.6°F10.3°C 53.3°F11.8°C 87% 3.2 mph WSW5.1 kmh WSW 3.3 mph5.3 kmh 29.86 in1011.2 mb 0.00 in0.0 mm 0.00 in0.0 mm 0.10 in2.5 mm
07:44 AM 50.7°F10.4°C 53.3°F11.8°C 87% 3.6 mph NNW5.8 kmh NNW 3.7 mph6.0 kmh 29.85 in1010.8 mb 0.00 in0.0 mm 0.00 in0.0 mm 0.10 in2.5 mm
07:50 AM 50.8°F10.4°C 53.5°F11.9°C 87% 3.6 mph W5.8 kmh W 3.7 mph6.0 kmh 29.86 in1011.2 mb 0.00 in0.0 mm 0.00 in0.0 mm 0.10 in2.5 mm
07:53 AM 50.8°F10.4°C 53.6°F12.0°C 87% 1.2 mph NNW1.9 kmh NNW 1.2 mph1.9 kmh 29.86 in1011.2 mb 0.00 in0.0 mm 0.00 in0.0 mm 0.10 in2.5 mm
07:56 AM 50.8°F10.4°C 53.4°F11.9°C 87% 4.3 mph NNW6.9 kmh NNW 4.3 mph6.9 kmh 29.86 in1011.2 mb 0.00 in0.0 mm 0.00 in0.0 mm 0.10 in2.5 mm
07:59 AM 51.0°F10.6°C 53.6°F12.0°C 87% 0.8 mph SW1.3 kmh SW 0.8 mph1.3 kmh 29.86 in1011.2 mb 0.00 in0.0 mm 0.00 in0.0 mm 0.10 in2.5 mm
08:05 AM 50.9°F10.5°C 53.0°F11.7°C 86% 5.6 mph WSW9.0 kmh WSW 5.6 mph9.0 kmh 29.86 in1011.2 mb 0.00 in0.0 mm 0.00 in0.0 mm 0.10 in2.5 mm
08:08 AM 50.9°F10.5°C 53.5°F11.9°C 87% 6.1 mph W9.8 kmh W 6.1 mph9.8 kmh 29.86 in1011.2 mb 0.00 in0.0 mm 0.00 in0.0 mm 0.10 in2.5 mm
08:11 AM 51.0°F10.6°C 53.2°F11.8°C 86% 3.6 mph NNW5.8 kmh NNW 3.7 mph6.0 kmh 29.86 in1011.2 mb 0.00 in0.0 mm 0.00 in0.0 mm 0.10 in2.5 mm
08:14 AM 51.5°F10.8°C 53.4°F11.9°C 86% 5.1 mph NNW8.2 kmh NNW 5.2 mph8.4 kmh 29.87 in1011.5 mb 0.00 in0.0 mm 0.00 in0.0 mm 0.10 in2.5 mm
08:17 AM 51.2°F10.7°C 53.5°F11.9°C 87% 1.1 mph NW1.8 kmh NW 1.2 mph1.9 kmh 29.87 in1011.5 mb 0.00 in0.0 mm 0.00 in0.0 mm 0.10 in2.5 mm
08:20 AM 51.2°F10.7°C 53.6°F12.0°C 87% 3.2 mph NW5.1 kmh NW 3.2 mph5.1 kmh 29.87 in1011.5 mb 0.00 in0.0 mm 0.00 in0.0 mm 0.10 in2.5 mm
08:23 AM 51.2°F10.7°C 53.6°F12.0°C 87% 4.4 mph W7.1 kmh W 4.5 mph7.2 kmh 29.87 in1011.5 mb 0.00 in0.0 mm 0.00 in0.0 mm 0.10 in2.5 mm
08:26 AM 51.2°F10.7°C 53.1°F11.7°C 85% 5.2 mph W8.4 kmh W 5.2 mph8.4 kmh 29.87 in1011.5 mb 0.00 in0.0 mm 0.00 in0.0 mm 0.10 in2.5 mm
08:29 AM 51.4°F10.8°C 53.6°F12.0°C 86% 3.6 mph W5.8 kmh W 3.6 mph5.8 kmh 29.87 in1011.5 mb 0.00 in0.0 mm 0.00 in0.0 mm 0.10 in2.5 mm
08:35 AM 51.2°F10.7°C 53.6°F12.0°C 86% 2.4 mph W3.9 kmh W 2.4 mph3.9 kmh 29.87 in1011.5 mb 0.00 in0.0 mm 0.00 in0.0 mm 0.10 in2.5 mm
08:38 AM 51.1°F10.6°C 53.4°F11.9°C 86% 3.1 mph WSW5.0 kmh WSW 3.3 mph5.3 kmh 29.87 in1011.5 mb 0.00 in0.0 mm 0.00 in0.0 mm 0.10 in2.5 mm
08:41 AM 51.4°F10.8°C 53.0°F11.7°C 85% 2.2 mph W3.5 kmh W 2.2 mph3.5 kmh 29.88 in1011.9 mb 0.00 in0.0 mm 0.00 in0.0 mm 0.10 in2.5 mm
08:44 AM 51.6°F10.9°C 53.2°F11.8°C 85% 4.4 mph W7.1 kmh W 4.5 mph7.2 kmh 29.88 in1011.9 mb 0.00 in0.0 mm 0.00 in0.0 mm 0.10 in2.5 mm
08:47 AM 51.9°F11.1°C 53.6°F12.0°C 86% 6.0 mph NW9.7 kmh NW 6.0 mph9.7 kmh 29.88 in1011.9 mb 0.00 in0.0 mm 0.00 in0.0 mm 0.10 in2.5 mm
08:53 AM 51.8°F11.0°C 53.7°F12.1°C 86% 2.8 mph NNW4.5 kmh NNW 2.8 mph4.5 kmh 29.88 in1011.9 mb 0.00 in0.0 mm 0.00 in0.0 mm 0.10 in2.5 mm
08:56 AM 51.6°F10.9°C 53.4°F11.9°C 86% 7.9 mph SW12.7 kmh SW 7.9 mph12.7 kmh 29.88 in1011.9 mb 0.00 in0.0 mm 0.00 in0.0 mm 0.10 in2.5 mm
08:59 AM 51.8°F11.0°C 53.5°F11.9°C 86% 3.1 mph W5.0 kmh W 3.1 mph5.0 kmh 29.88 in1011.9 mb 0.00 in0.0 mm 0.00 in0.0 mm 0.10 in2.5 mm
09:02 AM 51.6°F10.9°C 53.4°F11.9°C 86% 4.0 mph WSW6.4 kmh WSW 4.1 mph6.6 kmh 29.88 in1011.9 mb 0.00 in0.0 mm 0.00 in0.0 mm 0.10 in2.5 mm
09:08 AM 51.2°F10.7°C 53.3°F11.8°C 85% 3.6 mph WNW5.8 kmh WNW 3.6 mph5.8 kmh 29.88 in1011.9 mb 0.00 in0.0 mm 0.00 in0.0 mm 0.10 in2.5 mm
09:11 AM 51.1°F10.6°C 53.1°F11.7°C 85% 4.6 mph NNW7.4 kmh NNW 4.6 mph7.4 kmh 29.89 in1012.2 mb 0.00 in0.0 mm 0.00 in0.0 mm 0.10 in2.5 mm
09:14 AM 51.2°F10.7°C 53.1°F11.7°C 85% 6.8 mph SW10.9 kmh SW 6.9 mph11.1 kmh 29.88 in1011.9 mb 0.00 in0.0 mm 0.00 in0.0 mm 0.10 in2.5 mm
09:20 AM 51.6°F10.9°C 53.2°F11.8°C 85% 4.0 mph W6.4 kmh W 4.0 mph6.4 kmh 29.88 in1011.9 mb 0.00 in0.0 mm 0.00 in0.0 mm 0.10 in2.5 mm
09:23 AM 51.9°F11.1°C 53.4°F11.9°C 85% 2.4 mph NNW3.9 kmh NNW 2.4 mph3.9 kmh 29.88 in1011.9 mb 0.00 in0.0 mm 0.00 in0.0 mm 0.10 in2.5 mm
09:26 AM 51.6°F10.9°C 53.4°F11.9°C 85% 11.7 mph W18.8 kmh W 11.7 mph18.8 kmh 29.89 in1012.2 mb 0.00 in0.0 mm 0.00 in0.0 mm 0.10 in2.5 mm
09:29 AM 51.6°F10.9°C 53.1°F11.7°C 85% 7.2 mph NNW11.6 kmh NNW 7.3 mph11.7 kmh 29.88 in1011.9 mb 0.00 in0.0 mm 0.00 in0.0 mm 0.10 in2.5 mm
09:35 AM 52.0°F11.1°C 53.3°F11.8°C 85% 5.4 mph W8.7 kmh W 5.4 mph8.7 kmh 29.88 in1011.9 mb 0.00 in0.0 mm 0.00 in0.0 mm 0.10 in2.5 mm
09:38 AM 52.3°F11.3°C 53.3°F11.8°C 85% 4.4 mph WNW7.1 kmh WNW 4.5 mph7.2 kmh 29.88 in1011.9 mb 0.00 in0.0 mm 0.00 in0.0 mm 0.10 in2.5 mm
09:41 AM 52.4°F11.3°C 53.1°F11.7°C 84% 4.9 mph WNW7.9 kmh WNW 4.9 mph7.9 kmh 29.88 in1011.9 mb 0.00 in0.0 mm 0.00 in0.0 mm 0.10 in2.5 mm
09:44 AM 52.8°F11.6°C 53.4°F11.9°C 85% 3.2 mph NNW5.1 kmh NNW 3.2 mph5.1 kmh 29.89 in1012.2 mb 0.00 in0.0 mm 0.00 in0.0 mm 0.10 in2.5 mm
09:50 AM 52.7°F11.5°C 53.8°F12.1°C 85% 2.8 mph WNW4.5 kmh WNW 2.8 mph4.5 kmh 29.89 in1012.2 mb 0.00 in0.0 mm 0.00 in0.0 mm 0.10 in2.5 mm
09:53 AM 52.6°F11.4°C 53.7°F12.1°C 84% 3.8 mph NNW6.1 kmh NNW 4.1 mph6.6 kmh 29.88 in1011.9 mb 0.00 in0.0 mm 0.00 in0.0 mm 0.10 in2.5 mm
09:56 AM 52.5°F11.4°C 53.6°F12.0°C 84% 5.7 mph WSW9.2 kmh WSW 5.7 mph9.2 kmh 29.89 in1012.2 mb 0.00 in0.0 mm 0.00 in0.0 mm 0.10 in2.5 mm
09:59 AM 52.9°F11.6°C 53.3°F11.8°C 84% 6.8 mph W10.9 kmh W 6.8 mph10.9 kmh 29.89 in1012.2 mb 0.00 in0.0 mm 0.00 in0.0 mm 0.10 in2.5 mm
10:05 AM 52.5°F11.4°C 53.4°F11.9°C 84% 3.8 mph WSW6.1 kmh WSW 4.1 mph6.6 kmh 29.89 in1012.2 mb 0.00 in0.0 mm 0.00 in0.0 mm 0.10 in2.5 mm
10:08 AM 52.3°F11.3°C 53.7°F12.1°C 84% 4.4 mph NNW7.1 kmh NNW 4.4 mph7.1 kmh 29.89 in1012.2 mb 0.00 in0.0 mm 0.00 in0.0 mm 0.10 in2.5 mm
10:11 AM 52.4°F11.3°C 53.3°F11.8°C 84% 6.8 mph W10.9 kmh W 6.8 mph10.9 kmh 29.89 in1012.2 mb 0.00 in0.0 mm 0.00 in0.0 mm 0.10 in2.5 mm
10:14 AM 52.5°F11.4°C 53.1°F11.7°C 83% 1.6 mph WNW2.6 kmh WNW 1.6 mph2.6 kmh 29.89 in1012.2 mb 0.00 in0.0 mm 0.00 in0.0 mm 0.10 in2.5 mm
10:20 AM 52.7°F11.5°C 53.3°F11.8°C 83% 6.4 mph W10.3 kmh W 6.4 mph10.3 kmh 29.89 in1012.2 mb 0.00 in0.0 mm 0.00 in0.0 mm 0.10 in2.5 mm
10:23 AM 53.0°F11.7°C 53.9°F12.2°C 84% 7.2 mph WSW11.6 kmh WSW 7.3 mph11.7 kmh 29.89 in1012.2 mb 0.00 in0.0 mm 0.00 in0.0 mm 0.10 in2.5 mm
10:26 AM 53.4°F11.9°C 53.5°F11.9°C 83% 6.2 mph W10.0 kmh W 6.2 mph10.0 kmh 29.89 in1012.2 mb 0.00 in0.0 mm 0.00 in0.0 mm 0.10 in2.5 mm
10:29 AM 53.5°F11.9°C 53.6°F12.0°C 84% 10.0 mph W16.1 kmh W 10.0 mph16.1 kmh 29.89 in1012.2 mb 0.00 in0.0 mm 0.00 in0.0 mm 0.10 in2.5 mm
10:32 AM 53.7°F12.1°C 53.7°F12.1°C 83% 2.4 mph WNW3.9 kmh WNW 2.4 mph3.9 kmh 29.89 in1012.2 mb 0.00 in0.0 mm 0.00 in0.0 mm 0.10 in2.5 mm
10:35 AM 54.2°F12.3°C 53.8°F12.1°C 83% 1.6 mph WNW2.6 kmh WNW 1.6 mph2.6 kmh 29.89 in1012.2 mb 0.00 in0.0 mm 0.00 in0.0 mm 0.10 in2.5 mm
10:38 AM 54.6°F12.6°C 54.2°F12.3°C 84% 3.6 mph NNW5.8 kmh NNW 3.6 mph5.8 kmh 29.89 in1012.2 mb 0.00 in0.0 mm 0.00 in0.0 mm 0.10 in2.5 mm
10:41 AM 54.3°F12.4°C 53.5°F11.9°C 82% 7.3 mph W11.7 kmh W 7.4 mph11.9 kmh 29.89 in1012.2 mb 0.00 in0.0 mm 0.00 in0.0 mm 0.10 in2.5 mm
10:44 AM 54.1°F12.3°C 53.9°F12.2°C 83% 8.9 mph W14.3 kmh W 9.0 mph14.5 kmh 29.88 in1011.9 mb 0.00 in0.0 mm 0.00 in0.0 mm 0.10 in2.5 mm
10:50 AM 54.3°F12.4°C 53.9°F12.2°C 83% 5.9 mph WSW9.5 kmh WSW 5.9 mph9.5 kmh 29.89 in1012.2 mb 0.00 in0.0 mm 0.00 in0.0 mm 0.10 in2.5 mm
10:53 AM 55.1°F12.8°C 53.8°F12.1°C 82% 6.9 mph NNW11.1 kmh NNW 6.9 mph11.1 kmh 29.89 in1012.2 mb 0.00 in0.0 mm 0.00 in0.0 mm 0.10 in2.5 mm
10:56 AM 54.5°F12.5°C 54.2°F12.3°C 82% 7.9 mph WSW12.7 kmh WSW 8.0 mph12.9 kmh 29.89 in1012.2 mb 0.00 in0.0 mm 0.00 in0.0 mm 0.10 in2.5 mm
10:59 AM 54.7°F12.6°C 54.1°F12.3°C 82% 6.9 mph NW11.1 kmh NW 6.9 mph11.1 kmh 29.89 in1012.2 mb 0.00 in0.0 mm 0.00 in0.0 mm 0.10 in2.5 mm
11:02 AM 55.6°F13.1°C 54.4°F12.4°C 82% 7.2 mph NNW11.6 kmh NNW 7.2 mph11.6 kmh 29.89 in1012.2 mb 0.00 in0.0 mm 0.00 in0.0 mm 0.10 in2.5 mm
11:08 AM 56.0°F13.3°C 54.4°F12.4°C 82% 7.6 mph SW12.2 kmh SW 7.6 mph12.2 kmh 29.90 in1012.5 mb 0.00 in0.0 mm 0.00 in0.0 mm 0.10 in2.5 mm
11:11 AM 54.7°F12.6°C 54.0°F12.2°C 80% 7.1 mph W11.4 kmh W 7.1 mph11.4 kmh 29.89 in1012.2 mb 0.00 in0.0 mm 0.00 in0.0 mm 0.10 in2.5 mm
11:14 AM 54.8°F12.7°C 54.0°F12.2°C 80% 6.2 mph NNW10.0 kmh NNW 6.2 mph10.0 kmh 29.90 in1012.5 mb 0.00 in0.0 mm 0.00 in0.0 mm 0.10 in2.5 mm
11:17 AM 54.6°F12.6°C 53.6°F12.0°C 79% 6.1 mph WSW9.8 kmh WSW 6.1 mph9.8 kmh 29.89 in1012.2 mb 0.00 in0.0 mm 0.00 in0.0 mm 0.10 in2.5 mm
11:20 AM 55.0°F12.8°C 53.9°F12.2°C 80% 6.7 mph SW10.8 kmh SW 6.8 mph10.9 kmh 29.89 in1012.2 mb 0.00 in0.0 mm 0.00 in0.0 mm 0.10 in2.5 mm
11:26 AM 55.1°F12.8°C 53.5°F11.9°C 78% 5.3 mph WNW8.5 kmh WNW 5.3 mph8.5 kmh 29.90 in1012.5 mb 0.00 in0.0 mm 0.00 in0.0 mm 0.10 in2.5 mm
11:29 AM 55.1°F12.8°C 53.2°F11.8°C 78% 2.8 mph SW4.5 kmh SW 2.8 mph4.5 kmh 29.90 in1012.5 mb 0.00 in0.0 mm 0.00 in0.0 mm 0.10 in2.5 mm
11:32 AM 54.5°F12.5°C 53.1°F11.7°C 77% 8.7 mph NNW14.0 kmh NNW 8.8 mph14.2 kmh 29.90 in1012.5 mb 0.00 in0.0 mm 0.00 in0.0 mm 0.10 in2.5 mm
11:35 AM 54.8°F12.7°C 53.6°F12.0°C 78% 2.7 mph WSW4.3 kmh WSW 2.8 mph4.5 kmh 29.89 in1012.2 mb 0.00 in0.0 mm 0.00 in0.0 mm 0.10 in2.5 mm
11:38 AM 55.2°F12.9°C 53.0°F11.7°C 76% 7.3 mph WSW11.7 kmh WSW 7.4 mph11.9 kmh 29.89 in1012.2 mb 0.00 in0.0 mm 0.00 in0.0 mm 0.10 in2.5 mm
11:41 AM 57.3°F14.1°C 54.5°F12.5°C 78% 8.8 mph W14.2 kmh W 8.9 mph14.3 kmh 29.90 in1012.5 mb 0.00 in0.0 mm 0.00 in0.0 mm 0.10 in2.5 mm
11:44 AM 57.9°F14.4°C 54.5°F12.5°C 78% 9.7 mph NNW15.6 kmh NNW 9.7 mph15.6 kmh 29.89 in1012.2 mb 0.00 in0.0 mm 0.00 in0.0 mm 0.10 in2.5 mm
11:47 AM 58.1°F14.5°C 54.9°F12.7°C 78% 3.2 mph NW5.1 kmh NW 3.3 mph5.3 kmh 29.89 in1012.2 mb 0.00 in0.0 mm 0.00 in0.0 mm 0.10 in2.5 mm
11:50 AM 57.2°F14.0°C 54.8°F12.7°C 76% 12.1 mph WSW19.5 kmh WSW 12.2 mph19.6 kmh 29.90 in1012.5 mb 0.00 in0.0 mm 0.00 in0.0 mm 0.10 in2.5 mm
11:53 AM 55.7°F13.2°C 53.4°F11.9°C 74% 6.5 mph WNW10.5 kmh WNW 6.5 mph10.5 kmh 29.89 in1012.2 mb 0.00 in0.0 mm 0.00 in0.0 mm 0.10 in2.5 mm
11:56 AM 56.2°F13.4°C 53.8°F12.1°C 75% 11.9 mph NNW19.2 kmh NNW 12.0 mph19.3 kmh 29.89 in1012.2 mb 0.00 in0.0 mm 0.00 in0.0 mm 0.10 in2.5 mm
11:59 AM 56.6°F13.7°C 54.1°F12.3°C 75% 1.5 mph WSW2.4 kmh WSW 1.6 mph2.6 kmh 29.89 in1012.2 mb 0.00 in0.0 mm 0.00 in0.0 mm 0.10 in2.5 mm
12:02 PM 57.0°F13.9°C 54.2°F12.3°C 76% 5.3 mph WSW8.5 kmh WSW 5.3 mph8.5 kmh 29.89 in1012.2 mb 0.00 in0.0 mm 0.00 in0.0 mm 0.10 in2.5 mm
12:05 PM 56.8°F13.8°C 54.3°F12.4°C 75% 6.1 mph WNW9.8 kmh WNW 6.1 mph9.8 kmh 29.89 in1012.2 mb 0.00 in0.0 mm 0.00 in0.0 mm 0.10 in2.5 mm
12:08 PM 56.8°F13.8°C 54.0°F12.2°C 74% 4.2 mph NNW6.8 kmh NNW 4.5 mph7.2 kmh 29.89 in1012.2 mb 0.00 in0.0 mm 0.00 in0.0 mm 0.10 in2.5 mm
12:11 PM 56.9°F13.8°C 53.6°F12.0°C 73% 7.9 mph NW12.7 kmh NW 8.0 mph12.9 kmh 29.89 in1012.2 mb 0.00 in0.0 mm 0.00 in0.0 mm 0.10 in2.5 mm
12:14 PM 56.6°F13.7°C 52.9°F11.6°C 72% 8.8 mph NNW14.2 kmh NNW 8.8 mph14.2 kmh 29.89 in1012.2 mb 0.00 in0.0 mm 0.00 in0.0 mm 0.10 in2.5 mm
12:17 PM 56.6°F13.7°C 52.7°F11.5°C 71% 9.1 mph NW14.6 kmh NW 9.1 mph14.6 kmh 29.89 in1012.2 mb 0.00 in0.0 mm 0.00 in0.0 mm 0.10 in2.5 mm
12:20 PM 56.6°F13.7°C 53.1°F11.7°C 72% 4.1 mph NW6.6 kmh NW 4.1 mph6.6 kmh 29.89 in1012.2 mb 0.00 in0.0 mm 0.00 in0.0 mm 0.10 in2.5 mm
12:23 PM 56.6°F13.7°C 52.8°F11.6°C 72% 6.5 mph W10.5 kmh W 6.5 mph10.5 kmh 29.89 in1012.2 mb 0.00 in0.0 mm 0.00 in0.0 mm 0.10 in2.5 mm
12:26 PM 56.4°F13.6°C 53.2°F11.8°C 72% 6.0 mph W9.7 kmh W 6.0 mph9.7 kmh 29.89 in1012.2 mb 0.00 in0.0 mm 0.00 in0.0 mm 0.10 in2.5 mm
12:29 PM 55.7°F13.2°C 53.3°F11.8°C 72% 6.9 mph W11.1 kmh W 6.9 mph11.1 kmh 29.89 in1012.2 mb 0.00 in0.0 mm 0.00 in0.0 mm 0.10 in2.5 mm
12:32 PM 55.5°F13.1°C 52.8°F11.6°C 72% 5.4 mph WNW8.7 kmh WNW 5.4 mph8.7 kmh 29.89 in1012.2 mb 0.00 in0.0 mm 0.00 in0.0 mm 0.10 in2.5 mm
12:35 PM 55.7°F13.2°C 53.1°F11.7°C 73% 3.2 mph NNW5.1 kmh NNW 3.3 mph5.3 kmh 29.89 in1012.2 mb 0.00 in0.0 mm 0.00 in0.0 mm 0.10 in2.5 mm
12:38 PM 56.1°F13.4°C 53.5°F11.9°C 73% 5.6 mph NW9.0 kmh NW 5.7 mph9.2 kmh 29.89 in1012.2 mb 0.00 in0.0 mm 0.00 in0.0 mm 0.10 in2.5 mm
12:41 PM 56.4°F13.6°C 53.8°F12.1°C 74% 4.8 mph SW7.7 kmh SW 4.9 mph7.9 kmh 29.89 in1012.2 mb 0.00 in0.0 mm 0.00 in0.0 mm 0.10 in2.5 mm
12:47 PM 57.9°F14.4°C 53.7°F12.1°C 73% 6.3 mph WNW10.1 kmh WNW 6.4 mph10.3 kmh 29.89 in1012.2 mb 0.00 in0.0 mm 0.00 in0.0 mm 0.10 in2.5 mm
12:50 PM 57.7°F14.3°C 53.8°F12.1°C 73% 8.5 mph W13.7 kmh W 8.6 mph13.8 kmh 29.89 in1012.2 mb 0.00 in0.0 mm 0.00 in0.0 mm 0.10 in2.5 mm
12:53 PM 57.3°F14.1°C 53.8°F12.1°C 72% 4.2 mph WNW6.8 kmh WNW 4.3 mph6.9 kmh 29.89 in1012.2 mb 0.00 in0.0 mm 0.00 in0.0 mm 0.10 in2.5 mm
12:56 PM 57.7°F14.3°C 54.0°F12.2°C 72% 4.9 mph NNW7.9 kmh NNW 4.9 mph7.9 kmh 29.89 in1012.2 mb 0.00 in0.0 mm 0.00 in0.0 mm 0.10 in2.5 mm
12:59 PM 56.9°F13.8°C 53.7°F12.1°C 72% 4.4 mph SW7.1 kmh SW 4.4 mph7.1 kmh 29.89 in1012.2 mb 0.00 in0.0 mm 0.00 in0.0 mm 0.10 in2.5 mm
01:02 PM 56.3°F13.5°C 53.9°F12.2°C 72% 1.2 mph W1.9 kmh W 1.2 mph1.9 kmh 29.89 in1012.2 mb 0.00 in0.0 mm 0.00 in0.0 mm 0.10 in2.5 mm
01:05 PM 55.7°F13.2°C 53.2°F11.8°C 71% 3.4 mph NNW5.5 kmh NNW 3.4 mph5.5 kmh 29.89 in1012.2 mb 0.00 in0.0 mm 0.00 in0.0 mm 0.10 in2.5 mm
01:08 PM 55.3°F12.9°C 53.4°F11.9°C 72% 6.9 mph W11.1 kmh W 6.9 mph11.1 kmh 29.89 in1012.2 mb 0.00 in0.0 mm 0.00 in0.0 mm 0.10 in2.5 mm
01:11 PM 55.6°F13.1°C 53.4°F11.9°C 72% 4.4 mph W7.1 kmh W 4.4 mph7.1 kmh 29.89 in1012.2 mb 0.00 in0.0 mm 0.00 in0.0 mm 0.10 in2.5 mm
01:14 PM 56.1°F13.4°C 53.2°F11.8°C 72% 7.3 mph NNW11.7 kmh NNW 7.3 mph11.7 kmh 29.89 in1012.2 mb 0.00 in0.0 mm 0.00 in0.0 mm 0.10 in2.5 mm
01:17 PM 56.2°F13.4°C 53.1°F11.7°C 72% 5.4 mph W8.7 kmh W 5.4 mph8.7 kmh 29.89 in1012.2 mb 0.00 in0.0 mm 0.00 in0.0 mm 0.10 in2.5 mm
01:20 PM 56.2°F13.4°C 52.8°F11.6°C 71% 2.8 mph WNW4.5 kmh WNW 2.9 mph4.7 kmh 29.88 in1011.9 mb 0.00 in0.0 mm 0.00 in0.0 mm 0.10 in2.5 mm
01:23 PM 56.1°F13.4°C 53.2°F11.8°C 72% 2.0 mph WNW3.2 kmh WNW 2.0 mph3.2 kmh 29.89 in1012.2 mb 0.00 in0.0 mm 0.00 in0.0 mm 0.10 in2.5 mm
01:26 PM 55.3°F12.9°C 53.0°F11.7°C 72% 4.0 mph W6.4 kmh W 4.0 mph6.4 kmh 29.89 in1012.2 mb 0.00 in0.0 mm 0.00 in0.0 mm 0.10 in2.5 mm
01:29 PM 55.4°F13.0°C 53.2°F11.8°C 72% 6.8 mph W10.9 kmh W 6.8 mph10.9 kmh 29.89 in1012.2 mb 0.00 in0.0 mm 0.00 in0.0 mm 0.10 in2.5 mm
01:32 PM 55.5°F13.1°C 52.9°F11.6°C 72% 6.8 mph W10.9 kmh W 6.8 mph10.9 kmh 29.88 in1011.9 mb 0.00 in0.0 mm 0.00 in0.0 mm 0.10 in2.5 mm
01:35 PM 55.1°F12.8°C 52.9°F11.6°C 71% 10.1 mph WSW16.3 kmh WSW 10.2 mph16.4 kmh 29.88 in1011.9 mb 0.00 in0.0 mm 0.00 in0.0 mm 0.10 in2.5 mm
01:38 PM 55.2°F12.9°C 53.0°F11.7°C 72% 5.5 mph W8.9 kmh W 5.6 mph9.0 kmh 29.89 in1012.2 mb 0.00 in0.0 mm 0.00 in0.0 mm 0.10 in2.5 mm
01:41 PM 55.3°F12.9°C 53.0°F11.7°C 72% 10.5 mph SW16.9 kmh SW 10.5 mph16.9 kmh 29.89 in1012.2 mb 0.00 in0.0 mm 0.00 in0.0 mm 0.10 in2.5 mm
01:44 PM 55.3°F12.9°C 53.2°F11.8°C 73% 1.2 mph W1.9 kmh W 1.2 mph1.9 kmh 29.88 in1011.9 mb 0.00 in0.0 mm 0.00 in0.0 mm 0.10 in2.5 mm
01:47 PM 55.1°F12.8°C 53.1°F11.7°C 72% 0.4 mph NNW0.6 kmh NNW 0.4 mph0.6 kmh 29.88 in1011.9 mb 0.00 in0.0 mm 0.00 in0.0 mm 0.10 in2.5 mm
01:50 PM 55.3°F12.9°C 53.3°F11.8°C 73% 4.4 mph SW7.1 kmh SW 4.5 mph7.2 kmh 29.88 in1011.9 mb 0.00 in0.0 mm 0.00 in0.0 mm 0.10 in2.5 mm
01:53 PM 55.6°F13.1°C 53.0°F11.7°C 73% 3.6 mph SW5.8 kmh SW 3.7 mph6.0 kmh 29.89 in1012.2 mb 0.00 in0.0 mm 0.00 in0.0 mm 0.10 in2.5 mm
01:56 PM 56.1°F13.4°C 53.2°F11.8°C 73% 1.2 mph NNW1.9 kmh NNW 1.2 mph1.9 kmh 29.88 in1011.9 mb 0.00 in0.0 mm 0.00 in0.0 mm 0.10 in2.5 mm
01:59 PM 55.5°F13.1°C 53.2°F11.8°C 73% 6.8 mph WSW10.9 kmh WSW 6.8 mph10.9 kmh 29.88 in1011.9 mb 0.00 in0.0 mm 0.00 in0.0 mm 0.10 in2.5 mm
02:02 PM 55.9°F13.3°C 53.2°F11.8°C 73% 2.8 mph WNW4.5 kmh WNW 2.9 mph4.7 kmh 29.88 in1011.9 mb 0.00 in0.0 mm 0.00 in0.0 mm 0.10 in2.5 mm
02:05 PM 55.9°F13.3°C 53.3°F11.8°C 72% 6.0 mph NNW9.7 kmh NNW 6.0 mph9.7 kmh 29.88 in1011.9 mb 0.00 in0.0 mm 0.00 in0.0 mm 0.10 in2.5 mm
02:08 PM 55.7°F13.2°C 53.6°F12.0°C 73% 6.8 mph NNW10.9 kmh NNW 6.8 mph10.9 kmh 29.88 in1011.9 mb 0.00 in0.0 mm 0.00 in0.0 mm 0.10 in2.5 mm
02:11 PM 55.6°F13.1°C 53.3°F11.8°C 73% 6.5 mph W10.5 kmh W 6.5 mph10.5 kmh 29.88 in1011.9 mb 0.00 in0.0 mm 0.00 in0.0 mm 0.10 in2.5 mm
02:14 PM 55.7°F13.2°C 53.3°F11.8°C 73% 3.8 mph NNW6.1 kmh NNW 3.8 mph6.1 kmh 29.88 in1011.9 mb 0.00 in0.0 mm 0.00 in0.0 mm 0.10 in2.5 mm
02:17 PM 55.4°F13.0°C 53.6°F12.0°C 73% 4.5 mph W7.2 kmh W 4.5 mph7.2 kmh 29.88 in1011.9 mb 0.00 in0.0 mm 0.00 in0.0 mm 0.10 in2.5 mm
02:20 PM 55.5°F13.1°C 53.5°F11.9°C 73% 5.2 mph W8.4 kmh W 5.2 mph8.4 kmh 29.88 in1011.9 mb 0.00 in0.0 mm 0.00 in0.0 mm 0.10 in2.5 mm
02:23 PM 55.9°F13.3°C 53.4°F11.9°C 73% 5.0 mph NNW8.0 kmh NNW 5.0 mph8.0 kmh 29.88 in1011.9 mb 0.00 in0.0 mm 0.00 in0.0 mm 0.10 in2.5 mm
02:26 PM 55.9°F13.3°C 53.5°F11.9°C 73% 4.6 mph NNW7.4 kmh NNW 4.9 mph7.9 kmh 29.88 in1011.9 mb 0.00 in0.0 mm 0.00 in0.0 mm 0.10 in2.5 mm
02:29 PM 55.6°F13.1°C 53.5°F11.9°C 73% 2.0 mph WSW3.2 kmh WSW 2.0 mph3.2 kmh 29.88 in1011.9 mb 0.00 in0.0 mm 0.00 in0.0 mm 0.10 in2.5 mm
02:32 PM 55.4°F13.0°C 53.7°F12.1°C 73% 5.6 mph W9.0 kmh W 5.6 mph9.0 kmh 29.88 in1011.9 mb 0.00 in0.0 mm 0.00 in0.0 mm 0.10 in2.5 mm
02:35 PM 55.5°F13.1°C 53.5°F11.9°C 73% 4.6 mph W7.4 kmh W 4.6 mph7.4 kmh 29.88 in1011.9 mb 0.00 in0.0 mm 0.00 in0.0 mm 0.10 in2.5 mm
02:41 PM 55.2°F12.9°C 53.5°F11.9°C 73% 2.8 mph W4.5 kmh W 2.9 mph4.7 kmh 29.88 in1011.9 mb 0.00 in0.0 mm 0.00 in0.0 mm 0.10 in2.5 mm
02:44 PM 55.2°F12.9°C 53.6°F12.0°C 73% 4.8 mph W7.7 kmh W 4.9 mph7.9 kmh 29.88 in1011.9 mb 0.00 in0.0 mm 0.00 in0.0 mm 0.10 in2.5 mm
02:47 PM 55.2°F12.9°C 53.4°F11.9°C 73% 3.2 mph SW5.1 kmh SW 3.2 mph5.1 kmh 29.88 in1011.9 mb 0.00 in0.0 mm 0.00 in0.0 mm 0.10 in2.5 mm
02:50 PM 55.0°F12.8°C 53.3°F11.8°C 73% 4.8 mph W7.7 kmh W 4.9 mph7.9 kmh 29.88 in1011.9 mb 0.00 in0.0 mm 0.00 in0.0 mm 0.10 in2.5 mm
02:56 PM 54.8°F12.7°C 53.5°F11.9°C 74% 5.2 mph WNW8.4 kmh WNW 5.2 mph8.4 kmh 29.88 in1011.9 mb 0.00 in0.0 mm 0.00 in0.0 mm 0.10 in2.5 mm
02:59 PM 54.7°F12.6°C 53.4°F11.9°C 73% 2.7 mph WNW4.3 kmh WNW 2.7 mph4.3 kmh 29.88 in1011.9 mb 0.00 in0.0 mm 0.00 in0.0 mm 0.10 in2.5 mm
03:02 PM 54.6°F12.6°C 53.4°F11.9°C 73% 4.8 mph W7.7 kmh W 4.9 mph7.9 kmh 29.88 in1011.9 mb 0.00 in0.0 mm 0.00 in0.0 mm 0.10 in2.5 mm
03:05 PM 54.5°F12.5°C 53.2°F11.8°C 73% 5.2 mph W8.4 kmh W 5.2 mph8.4 kmh 29.88 in1011.9 mb 0.00 in0.0 mm 0.00 in0.0 mm 0.10 in2.5 mm
03:11 PM 54.6°F12.6°C 53.1°F11.7°C 73% 4.2 mph NNW6.8 kmh NNW 4.2 mph6.8 kmh 29.88 in1011.9 mb 0.00 in0.0 mm 0.00 in0.0 mm 0.10 in2.5 mm
03:14 PM 54.7°F12.6°C 53.4°F11.9°C 74% 3.9 mph NNW6.3 kmh NNW 3.9 mph6.3 kmh 29.88 in1011.9 mb 0.00 in0.0 mm 0.00 in0.0 mm 0.10 in2.5 mm
03:17 PM 54.7°F12.6°C 53.5°F11.9°C 74% 4.8 mph W7.7 kmh W 4.9 mph7.9 kmh 29.88 in1011.9 mb 0.00 in0.0 mm 0.00 in0.0 mm 0.10 in2.5 mm
03:20 PM 54.8°F12.7°C 53.2°F11.8°C 74% 2.8 mph SW4.5 kmh SW 2.8 mph4.5 kmh 29.88 in1011.9 mb 0.00 in0.0 mm 0.00 in0.0 mm 0.10 in2.5 mm
03:26 PM 54.7°F12.6°C 53.4°F11.9°C 74% 3.2 mph W5.1 kmh W 3.3 mph5.3 kmh 29.88 in1011.9 mb 0.00 in0.0 mm 0.00 in0.0 mm 0.10 in2.5 mm
03:29 PM 54.6°F12.6°C 53.4°F11.9°C 74% 3.9 mph W6.3 kmh W 4.0 mph6.4 kmh 29.88 in1011.9 mb 0.00 in0.0 mm 0.00 in0.0 mm 0.10 in2.5 mm
03:32 PM 54.7°F12.6°C 53.7°F12.1°C 74% 1.5 mph NNW2.4 kmh NNW 1.5 mph2.4 kmh 29.88 in1011.9 mb 0.00 in0.0 mm 0.00 in0.0 mm 0.10 in2.5 mm
03:35 PM 54.7°F12.6°C 53.3°F11.8°C 74% 1.2 mph W1.9 kmh W 1.2 mph1.9 kmh 29.88 in1011.9 mb 0.00 in0.0 mm 0.00 in0.0 mm 0.10 in2.5 mm
03:41 PM 54.6°F12.6°C 53.1°F11.7°C 74% 6.9 mph NNW11.1 kmh NNW 6.9 mph11.1 kmh 29.88 in1011.9 mb 0.00 in0.0 mm 0.00 in0.0 mm 0.10 in2.5 mm
03:44 PM 54.5°F12.5°C 53.2°F11.8°C 74% 5.7 mph W9.2 kmh W 5.7 mph9.2 kmh 29.89 in1012.2 mb 0.00 in0.0 mm 0.00 in0.0 mm 0.10 in2.5 mm
03:47 PM 54.3°F12.4°C 53.1°F11.7°C 74% 8.3 mph W13.4 kmh W 8.4 mph13.5 kmh 29.89 in1012.2 mb 0.00 in0.0 mm 0.00 in0.0 mm 0.10 in2.5 mm
03:50 PM 54.3°F12.4°C 53.2°F11.8°C 74% 6.0 mph NNW9.7 kmh NNW 6.1 mph9.8 kmh 29.88 in1011.9 mb 0.00 in0.0 mm 0.00 in0.0 mm 0.10 in2.5 mm
03:56 PM 54.3°F12.4°C 53.3°F11.8°C 75% 3.4 mph NW5.5 kmh NW 3.6 mph5.8 kmh 29.88 in1011.9 mb 0.00 in0.0 mm 0.00 in0.0 mm 0.10 in2.5 mm
03:59 PM 54.4°F12.4°C 53.1°F11.7°C 74% 4.8 mph W7.7 kmh W 4.9 mph7.9 kmh 29.88 in1011.9 mb 0.00 in0.0 mm 0.00 in0.0 mm 0.10 in2.5 mm
04:02 PM 54.4°F12.4°C 53.1°F11.7°C 74% 5.6 mph NNW9.0 kmh NNW 5.7 mph9.2 kmh 29.88 in1011.9 mb 0.00 in0.0 mm 0.00 in0.0 mm 0.10 in2.5 mm
04:05 PM 54.7°F12.6°C 53.2°F11.8°C 74% 2.8 mph W4.5 kmh W 2.9 mph4.7 kmh 29.88 in1011.9 mb 0.00 in0.0 mm 0.00 in0.0 mm 0.10 in2.5 mm
04:11 PM 54.7°F12.6°C 53.3°F11.8°C 74% 5.6 mph NNW9.0 kmh NNW 5.6 mph9.0 kmh 29.88 in1011.9 mb 0.00 in0.0 mm 0.00 in0.0 mm 0.10 in2.5 mm
04:14 PM 54.6°F12.6°C 53.4°F11.9°C 74% 7.3 mph W11.7 kmh W 7.3 mph11.7 kmh 29.88 in1011.9 mb 0.00 in0.0 mm 0.00 in0.0 mm 0.10 in2.5 mm
04:17 PM 54.6°F12.6°C 53.2°F11.8°C 74% 6.5 mph NNW10.5 kmh NNW 6.5 mph10.5 kmh 29.88 in1011.9 mb 0.00 in0.0 mm 0.00 in0.0 mm 0.10 in2.5 mm
04:20 PM 54.5°F12.5°C 53.1°F11.7°C 75% 3.2 mph W5.1 kmh W 3.2 mph5.1 kmh 29.88 in1011.9 mb 0.00 in0.0 mm 0.00 in0.0 mm 0.10 in2.5 mm
04:26 PM 54.5°F12.5°C 53.3°F11.8°C 74% 1.9 mph W3.1 kmh W 1.9 mph3.1 kmh 29.88 in1011.9 mb 0.00 in0.0 mm 0.00 in0.0 mm 0.10 in2.5 mm
04:29 PM 54.5°F12.5°C 53.4°F11.9°C 75% 9.1 mph W14.6 kmh W 9.1 mph14.6 kmh 29.88 in1011.9 mb 0.00 in0.0 mm 0.00 in0.0 mm 0.10 in2.5 mm
04:32 PM 54.4°F12.4°C 53.3°F11.8°C 75% 6.1 mph W9.8 kmh W 6.1 mph9.8 kmh 29.88 in1011.9 mb 0.00 in0.0 mm 0.00 in0.0 mm 0.10 in2.5 mm
04:35 PM 54.4°F12.4°C 53.2°F11.8°C 74% 3.2 mph W5.1 kmh W 3.2 mph5.1 kmh 29.88 in1011.9 mb 0.00 in0.0 mm 0.00 in0.0 mm 0.10 in2.5 mm
04:38 PM 54.3°F12.4°C 53.4°F11.9°C 75% 7.3 mph WSW11.7 kmh WSW 7.4 mph11.9 kmh 29.88 in1011.9 mb 0.00 in0.0 mm 0.00 in0.0 mm 0.10 in2.5 mm
04:44 PM 54.2°F12.3°C 53.3°F11.8°C 75% 4.6 mph NW7.4 kmh NW 4.6 mph7.4 kmh 29.88 in1011.9 mb 0.00 in0.0 mm 0.00 in0.0 mm 0.10 in2.5 mm
04:47 PM 54.1°F12.3°C 53.3°F11.8°C 75% 2.3 mph W3.7 kmh W 2.5 mph4.0 kmh 29.88 in1011.9 mb 0.00 in0.0 mm 0.00 in0.0 mm 0.10 in2.5 mm
04:50 PM 53.9°F12.2°C 53.2°F11.8°C 75% 3.6 mph W5.8 kmh W 3.6 mph5.8 kmh 29.88 in1011.9 mb 0.00 in0.0 mm 0.00 in0.0 mm 0.10 in2.5 mm
04:53 PM 53.7°F12.1°C 53.4°F11.9°C 76% 2.8 mph NW4.5 kmh NW 2.9 mph4.7 kmh 29.88 in1011.9 mb 0.00 in0.0 mm 0.00 in0.0 mm 0.10 in2.5 mm
04:56 PM 53.6°F12.0°C 53.3°F11.8°C 76% 4.2 mph WSW6.8 kmh WSW 4.2 mph6.8 kmh 29.88 in1011.9 mb 0.00 in0.0 mm 0.00 in0.0 mm 0.10 in2.5 mm
05:02 PM 53.4°F11.9°C 53.5°F11.9°C 77% 4.0 mph W6.4 kmh W 4.1 mph6.6 kmh 29.88 in1011.9 mb 0.00 in0.0 mm 0.00 in0.0 mm 0.10 in2.5 mm
05:05 PM 53.5°F11.9°C 53.3°F11.8°C 76% 2.0 mph W3.2 kmh W 2.0 mph3.2 kmh 29.88 in1011.9 mb 0.00 in0.0 mm 0.00 in0.0 mm 0.10 in2.5 mm
05:08 PM 53.4°F11.9°C 53.4°F11.9°C 77% 4.4 mph WNW7.1 kmh WNW 4.5 mph7.2 kmh 29.88 in1011.9 mb 0.00 in0.0 mm 0.00 in0.0 mm 0.10 in2.5 mm
05:11 PM 53.4°F11.9°C 53.5°F11.9°C 77% 3.5 mph WSW5.6 kmh WSW 3.5 mph5.6 kmh 29.89 in1012.2 mb 0.00 in0.0 mm 0.00 in0.0 mm 0.10 in2.5 mm
05:14 PM 53.3°F11.8°C 53.6°F12.0°C 77% 2.3 mph WNW3.7 kmh WNW 2.5 mph4.0 kmh 29.88 in1011.9 mb 0.00 in0.0 mm 0.00 in0.0 mm 0.10 in2.5 mm
05:17 PM 53.3°F11.8°C 53.3°F11.8°C 77% 1.6 mph WSW2.6 kmh WSW 1.6 mph2.6 kmh 29.88 in1011.9 mb 0.00 in0.0 mm 0.00 in0.0 mm 0.10 in2.5 mm
05:20 PM 53.4°F11.9°C 53.4°F11.9°C 77% 0.4 mph NNW0.6 kmh NNW 0.4 mph0.6 kmh 29.88 in1011.9 mb 0.00 in0.0 mm 0.00 in0.0 mm 0.10 in2.5 mm
05:23 PM 53.4°F11.9°C 53.4°F11.9°C 77% 5.2 mph WSW8.4 kmh WSW 5.2 mph8.4 kmh 29.89 in1012.2 mb 0.00 in0.0 mm 0.00 in0.0 mm 0.10 in2.5 mm
05:26 PM 53.4°F11.9°C 53.3°F11.8°C 77% 2.8 mph W4.5 kmh W 2.8 mph4.5 kmh 29.89 in1012.2 mb 0.00 in0.0 mm 0.00 in0.0 mm 0.10 in2.5 mm
05:29 PM 53.4°F11.9°C 53.3°F11.8°C 77% 4.4 mph WSW7.1 kmh WSW 4.4 mph7.1 kmh 29.89 in1012.2 mb 0.00 in0.0 mm 0.00 in0.0 mm 0.10 in2.5 mm
05:32 PM 53.3°F11.8°C 53.2°F11.8°C 77% 0.4 mph WSW0.6 kmh WSW 0.4 mph0.6 kmh 29.89 in1012.2 mb 0.00 in0.0 mm 0.00 in0.0 mm 0.10 in2.5 mm
05:35 PM 53.4°F11.9°C 53.2°F11.8°C 77% Calm Calm -- 29.89 in1012.2 mb 0.00 in0.0 mm 0.00 in0.0 mm 0.10 in2.5 mm
05:38 PM 53.3°F11.8°C 53.4°F11.9°C 77% 0.4 mph SW0.6 kmh SW 0.4 mph0.6 kmh 29.89 in1012.2 mb 0.00 in0.0 mm 0.00 in0.0 mm 0.10 in2.5 mm
05:41 PM 53.3°F11.8°C 53.2°F11.8°C 77% 2.4 mph NNW3.9 kmh NNW 2.4 mph3.9 kmh 29.89 in1012.2 mb 0.00 in0.0 mm 0.00 in0.0 mm 0.10 in2.5 mm
05:44 PM 53.3°F11.8°C 53.2°F11.8°C 77% Calm Calm -- 29.89 in1012.2 mb 0.00 in0.0 mm 0.00 in0.0 mm 0.10 in2.5 mm
05:50 PM 53.3°F11.8°C 53.1°F11.7°C 77% Calm Calm -- 29.89 in1012.2 mb 0.00 in0.0 mm 0.00 in0.0 mm 0.10 in2.5 mm
05:53 PM 53.2°F11.8°C 53.2°F11.8°C 77% Calm Calm -- 29.89 in1012.2 mb 0.00 in0.0 mm 0.00 in0.0 mm 0.10 in2.5 mm
05:56 PM 53.0°F11.7°C 53.5°F11.9°C 77% Calm Calm -- 29.89 in1012.2 mb 0.00 in0.0 mm 0.00 in0.0 mm 0.10 in2.5 mm
05:59 PM 53.0°F11.7°C 53.2°F11.8°C 77% 0.8 mph SW1.3 kmh SW 0.8 mph1.3 kmh 29.89 in1012.2 mb 0.00 in0.0 mm 0.00 in0.0 mm 0.10 in2.5 mm
06:02 PM 53.2°F11.8°C 53.2°F11.8°C 77% Calm Calm -- 29.89 in1012.2 mb 0.00 in0.0 mm 0.00 in0.0 mm 0.10 in2.5 mm
06:05 PM 53.0°F11.7°C 53.2°F11.8°C 77% Calm Calm -- 29.89 in1012.2 mb 0.00 in0.0 mm 0.00 in0.0 mm 0.10 in2.5 mm
06:08 PM 52.9°F11.6°C 53.4°F11.9°C 77% Calm Calm -- 29.89 in1012.2 mb 0.00 in0.0 mm 0.00 in0.0 mm 0.10 in2.5 mm
06:11 PM 52.9°F11.6°C 53.3°F11.8°C 77% Calm Calm -- 29.89 in1012.2 mb 0.00 in0.0 mm 0.00 in0.0 mm 0.10 in2.5 mm
06:14 PM 52.8°F11.6°C 53.2°F11.8°C 77% 0.4 mph WSW0.6 kmh WSW 0.4 mph0.6 kmh 29.89 in1012.2 mb 0.00 in0.0 mm 0.00 in0.0 mm 0.10 in2.5 mm
06:17 PM 52.8°F11.6°C 53.3°F11.8°C 77% Calm Calm -- 29.89 in1012.2 mb 0.00 in0.0 mm 0.00 in0.0 mm 0.10 in2.5 mm
06:20 PM 52.9°F11.6°C 53.2°F11.8°C 77% Calm Calm -- 29.89 in1012.2 mb 0.00 in0.0 mm 0.00 in0.0 mm 0.10 in2.5 mm
06:23 PM 52.8°F11.6°C 53.2°F11.8°C 77% Calm Calm -- 29.89 in1012.2 mb 0.00 in0.0 mm 0.00 in0.0 mm 0.10 in2.5 mm
06:26 PM 52.8°F11.6°C 53.1°F11.7°C 77% Calm Calm -- 29.89 in1012.2 mb 0.00 in0.0 mm 0.00 in0.0 mm 0.10 in2.5 mm
06:29 PM 52.7°F11.5°C 53.2°F11.8°C 78% Calm Calm -- 29.89 in1012.2 mb 0.00 in0.0 mm 0.00 in0.0 mm 0.10 in2.5 mm
06:32 PM 52.6°F11.4°C 53.1°F11.7°C 77% Calm Calm -- 29.89 in1012.2 mb 0.00 in0.0 mm 0.00 in0.0 mm 0.10 in2.5 mm
06:35 PM 52.7°F11.5°C 53.1°F11.7°C 77% Calm Calm -- 29.89 in1012.2 mb 0.00 in0.0 mm 0.00 in0.0 mm 0.10 in2.5 mm
06:38 PM 52.5°F11.4°C 53.1°F11.7°C 77% Calm Calm -- 29.90 in1012.5 mb 0.00 in0.0 mm 0.00 in0.0 mm 0.10 in2.5 mm
06:41 PM 52.4°F11.3°C 53.1°F11.7°C 78% Calm Calm -- 29.89 in1012.2 mb 0.00 in0.0 mm 0.00 in0.0 mm 0.10 in2.5 mm
06:44 PM 52.3°F11.3°C 53.1°F11.7°C 78% Calm Calm -- 29.89 in1012.2 mb 0.00 in0.0 mm 0.00 in0.0 mm 0.10 in2.5 mm
06:47 PM 52.3°F11.3°C 53.1°F11.7°C 78% Calm Calm -- 29.89 in1012.2 mb 0.00 in0.0 mm 0.00 in0.0 mm 0.10 in2.5 mm
06:50 PM 52.0°F11.1°C 53.2°F11.8°C 78% Calm Calm -- 29.90 in1012.5 mb 0.00 in0.0 mm 0.00 in0.0 mm 0.10 in2.5 mm
06:53 PM 52.0°F11.1°C 53.1°F11.7°C 78% Calm Calm -- 29.90 in1012.5 mb 0.00 in0.0 mm 0.00 in0.0 mm 0.10 in2.5 mm
06:56 PM 52.1°F11.2°C 53.1°F11.7°C 78% Calm Calm -- 29.90 in1012.5 mb 0.00 in0.0 mm 0.00 in0.0 mm 0.10 in2.5 mm
06:59 PM 52.0°F11.1°C 53.4°F11.9°C 79% Calm Calm -- 29.89 in1012.2 mb 0.00 in0.0 mm 0.00 in0.0 mm 0.10 in2.5 mm
07:02 PM 51.9°F11.1°C 53.3°F11.8°C 79% Calm Calm -- 29.89 in1012.2 mb 0.00 in0.0 mm 0.00 in0.0 mm 0.10 in2.5 mm
07:05 PM 51.7°F10.9°C 53.1°F11.7°C 78% Calm Calm -- 29.89 in1012.2 mb 0.00 in0.0 mm 0.00 in0.0 mm 0.10 in2.5 mm
07:08 PM 51.8°F11.0°C 53.4°F11.9°C 79% Calm Calm -- 29.89 in1012.2 mb 0.00 in0.0 mm 0.00 in0.0 mm 0.10 in2.5 mm
07:11 PM 51.9°F11.1°C 53.3°F11.8°C 79% Calm Calm -- 29.89 in1012.2 mb 0.00 in0.0 mm 0.00 in0.0 mm 0.10 in2.5 mm
07:14 PM 51.8°F11.0°C 53.6°F12.0°C 80% Calm Calm -- 29.89 in1012.2 mb 0.00 in0.0 mm 0.00 in0.0 mm 0.10 in2.5 mm
07:17 PM 51.7°F10.9°C 53.6°F12.0°C 80% Calm Calm -- 29.89 in1012.2 mb 0.00 in0.0 mm 0.00 in0.0 mm 0.10 in2.5 mm
07:20 PM 51.8°F11.0°C 53.2°F11.8°C 80% Calm Calm -- 29.89 in1012.2 mb 0.00 in0.0 mm 0.00 in0.0 mm 0.10 in2.5 mm
07:23 PM 51.8°F11.0°C 53.5°F11.9°C 80% Calm Calm -- 29.89 in1012.2 mb 0.00 in0.0 mm 0.00 in0.0 mm 0.10 in2.5 mm
07:26 PM 51.7°F10.9°C 53.6°F12.0°C 80% Calm Calm -- 29.89 in1012.2 mb 0.00 in0.0 mm 0.00 in0.0 mm 0.10 in2.5 mm
07:29 PM 51.8°F11.0°C 53.3°F11.8°C 80% Calm Calm -- 29.88 in1011.9 mb 0.00 in0.0 mm 0.00 in0.0 mm 0.10 in2.5 mm
07:32 PM 51.7°F10.9°C 53.5°F11.9°C 80% Calm Calm -- 29.88 in1011.9 mb 0.00 in0.0 mm 0.00 in0.0 mm 0.10 in2.5 mm
07:35 PM 51.6°F10.9°C 53.7°F12.1°C 81% Calm Calm -- 29.88 in1011.9 mb 0.00 in0.0 mm 0.00 in0.0 mm 0.10 in2.5 mm
07:38 PM 51.6°F10.9°C 53.6°F12.0°C 80% Calm Calm -- 29.88 in1011.9 mb 0.00 in0.0 mm 0.00 in0.0 mm 0.10 in2.5 mm
07:41 PM 51.5°F10.8°C 53.4°F11.9°C 80% Calm Calm -- 29.88 in1011.9 mb 0.00 in0.0 mm 0.00 in0.0 mm 0.10 in2.5 mm
07:44 PM 51.5°F10.8°C 53.5°F11.9°C 80% Calm Calm -- 29.88 in1011.9 mb 0.00 in0.0 mm 0.00 in0.0 mm 0.10 in2.5 mm
07:47 PM 51.4°F10.8°C 53.2°F11.8°C 80% Calm Calm -- 29.88 in1011.9 mb 0.00 in0.0 mm 0.00 in0.0 mm 0.10 in2.5 mm
07:50 PM 51.2°F10.7°C 53.4°F11.9°C 81% Calm Calm -- 29.88 in1011.9 mb 0.00 in0.0 mm 0.00 in0.0 mm 0.10 in2.5 mm
07:53 PM 51.1°F10.6°C 53.2°F11.8°C 81% Calm Calm -- 29.88 in1011.9 mb 0.00 in0.0 mm 0.00 in0.0 mm 0.10 in2.5 mm
07:56 PM 51.1°F10.6°C 53.3°F11.8°C 81% Calm Calm -- 29.88 in1011.9 mb 0.00 in0.0 mm 0.00 in0.0 mm 0.10 in2.5 mm
08:02 PM 50.9°F10.5°C 53.2°F11.8°C 81% Calm Calm -- 29.88 in1011.9 mb 0.00 in0.0 mm 0.00 in0.0 mm 0.10 in2.5 mm
08:05 PM 50.8°F10.4°C 53.2°F11.8°C 80% Calm Calm -- 29.88 in1011.9 mb 0.00 in0.0 mm 0.00 in0.0 mm 0.10 in2.5 mm
08:08 PM 50.7°F10.4°C 53.2°F11.8°C 81% Calm Calm -- 29.88 in1011.9 mb 0.00 in0.0 mm 0.00 in0.0 mm 0.10 in2.5 mm
08:11 PM 50.8°F10.4°C 53.2°F11.8°C 81% Calm Calm -- 29.88 in1011.9 mb 0.00 in0.0 mm 0.00 in0.0 mm 0.10 in2.5 mm
08:14 PM 50.7°F10.4°C 53.3°F11.8°C 81% Calm Calm -- 29.88 in1011.9 mb 0.00 in0.0 mm 0.00 in0.0 mm 0.10 in2.5 mm
08:17 PM 50.3°F10.2°C 53.1°F11.7°C 81% Calm Calm -- 29.88 in1011.9 mb 0.00 in0.0 mm 0.00 in0.0 mm 0.10 in2.5 mm
08:20 PM 50.1°F10.1°C 52.7°F11.5°C 80% Calm Calm -- 29.88 in1011.9 mb 0.00 in0.0 mm 0.00 in0.0 mm 0.10 in2.5 mm
08:23 PM 50.0°F10.0°C 52.7°F11.5°C 81% Calm Calm -- 29.88 in1011.9 mb 0.00 in0.0 mm 0.00 in0.0 mm 0.10 in2.5 mm
08:26 PM 50.0°F10.0°C 52.8°F11.6°C 81% Calm Calm -- 29.88 in1011.9 mb 0.00 in0.0 mm 0.00 in0.0 mm 0.10 in2.5 mm
08:29 PM 50.0°F10.0°C 52.7°F11.5°C 81% Calm Calm -- 29.88 in1011.9 mb 0.00 in0.0 mm 0.00 in0.0 mm 0.10 in2.5 mm
08:32 PM 50.1°F10.1°C 52.8°F11.6°C 81% Calm Calm -- 29.88 in1011.9 mb 0.00 in0.0 mm 0.00 in0.0 mm 0.10 in2.5 mm
08:35 PM 50.0°F10.0°C 52.6°F11.4°C 81% Calm Calm -- 29.88 in1011.9 mb 0.00 in0.0 mm 0.00 in0.0 mm 0.10 in2.5 mm
08:38 PM 50.0°F10.0°C 52.6°F11.4°C 81% Calm Calm -- 29.88 in1011.9 mb 0.00 in0.0 mm 0.00 in0.0 mm 0.10 in2.5 mm
08:41 PM 50.0°F10.0°C 52.7°F11.5°C 82% Calm Calm -- 29.88 in1011.9 mb 0.00 in0.0 mm 0.00 in0.0 mm 0.10 in2.5 mm
08:44 PM 50.1°F10.1°C 52.8°F11.6°C 82% Calm Calm -- 29.88 in1011.9 mb 0.00 in0.0 mm 0.00 in0.0 mm 0.10 in2.5 mm
08:47 PM 50.2°F10.1°C 52.9°F11.6°C 82% Calm Calm -- 29.88 in1011.9 mb 0.00 in0.0 mm 0.00 in0.0 mm 0.10 in2.5 mm
08:53 PM 51.1°F10.6°C 52.7°F11.5°C 82% Calm Calm -- 29.88 in1011.9 mb 0.00 in0.0 mm 0.00 in0.0 mm 0.10 in2.5 mm
08:56 PM 51.1°F10.6°C 52.6°F11.4°C 81% Calm Calm -- 29.89 in1012.2 mb 0.00 in0.0 mm 0.00 in0.0 mm 0.10 in2.5 mm
08:59 PM 51.2°F10.7°C 52.6°F11.4°C 81% Calm Calm -- 29.88 in1011.9 mb 0.00 in0.0 mm 0.00 in0.0 mm 0.10 in2.5 mm
09:02 PM 51.0°F10.6°C 52.7°F11.5°C 81% Calm Calm -- 29.89 in1012.2 mb 0.00 in0.0 mm 0.00 in0.0 mm 0.10 in2.5 mm
09:05 PM 50.8°F10.4°C 52.7°F11.5°C 81% Calm Calm -- 29.88 in1011.9 mb 0.00 in0.0 mm 0.00 in0.0 mm 0.10 in2.5 mm
09:08 PM 50.6°F10.3°C 52.4°F11.3°C 81% Calm Calm -- 29.88 in1011.9 mb 0.00 in0.0 mm 0.00 in0.0 mm 0.10 in2.5 mm
09:11 PM 50.7°F10.4°C 52.4°F11.3°C 81% Calm Calm -- 29.88 in1011.9 mb 0.00 in0.0 mm 0.00 in0.0 mm 0.10 in2.5 mm
09:14 PM 50.7°F10.4°C 52.3°F11.3°C 81% Calm Calm -- 29.88 in1011.9 mb 0.00 in0.0 mm 0.00 in0.0 mm 0.10 in2.5 mm
09:17 PM 50.9°F10.5°C 52.6°F11.4°C 81% Calm Calm -- 29.89 in1012.2 mb 0.00 in0.0 mm 0.00 in0.0 mm 0.10 in2.5 mm
09:20 PM 51.1°F10.6°C 52.7°F11.5°C 81% 1.2 mph NNW1.9 kmh NNW 1.2 mph1.9 kmh 29.89 in1012.2 mb 0.00 in0.0 mm 0.00 in0.0 mm 0.10 in2.5 mm
09:26 PM 51.5°F10.8°C 52.7°F11.5°C 81% Calm Calm -- 29.88 in1011.9 mb 0.00 in0.0 mm 0.00 in0.0 mm 0.10 in2.5 mm
09:29 PM 51.5°F10.8°C 52.5°F11.4°C 81% Calm Calm -- 29.89 in1012.2 mb 0.00 in0.0 mm 0.00 in0.0 mm 0.10 in2.5 mm
09:32 PM 51.6°F10.9°C 52.7°F11.5°C 81% Calm Calm -- 29.89 in1012.2 mb 0.00 in0.0 mm 0.00 in0.0 mm 0.10 in2.5 mm
09:35 PM 51.4°F10.8°C 52.5°F11.4°C 81% Calm Calm -- 29.89 in1012.2 mb 0.00 in0.0 mm 0.00 in0.0 mm 0.10 in2.5 mm
09:38 PM 51.5°F10.8°C 52.8°F11.6°C 82% Calm Calm -- 29.89 in1012.2 mb 0.00 in0.0 mm 0.00 in0.0 mm 0.10 in2.5 mm
09:41 PM 51.4°F10.8°C 52.7°F11.5°C 82% Calm Calm -- 29.89 in1012.2 mb 0.00 in0.0 mm 0.00 in0.0 mm 0.10 in2.5 mm
09:44 PM 51.2°F10.7°C 52.7°F11.5°C 81% Calm Calm -- 29.89 in1012.2 mb 0.00 in0.0 mm 0.00 in0.0 mm 0.10 in2.5 mm
09:47 PM 51.1°F10.6°C 52.9°F11.6°C 82% Calm Calm -- 29.89 in1012.2 mb 0.00 in0.0 mm 0.00 in0.0 mm 0.10 in2.5 mm
09:50 PM 51.2°F10.7°C 53.0°F11.7°C 82% Calm Calm -- 29.88 in1011.9 mb 0.00 in0.0 mm 0.00 in0.0 mm 0.10 in2.5 mm
09:53 PM 51.2°F10.7°C 53.1°F11.7°C 82% Calm Calm -- 29.89 in1012.2 mb 0.00 in0.0 mm 0.00 in0.0 mm 0.10 in2.5 mm
09:56 PM 51.7°F10.9°C 53.0°F11.7°C 82% 2.4 mph W3.9 kmh W 2.4 mph3.9 kmh 29.89 in1012.2 mb 0.00 in0.0 mm 0.00 in0.0 mm 0.10 in2.5 mm
10:02 PM 52.8°F11.6°C 52.6°F11.4°C 81% 2.0 mph NNW3.2 kmh NNW 2.0 mph3.2 kmh 29.89 in1012.2 mb 0.00 in0.0 mm 0.00 in0.0 mm 0.10 in2.5 mm
10:05 PM 52.6°F11.4°C 52.7°F11.5°C 81% 0.4 mph SW0.6 kmh SW 0.4 mph0.6 kmh 29.89 in1012.2 mb 0.00 in0.0 mm 0.00 in0.0 mm 0.10 in2.5 mm
10:08 PM 52.9°F11.6°C 52.8°F11.6°C 81% 1.6 mph NNW2.6 kmh NNW 1.6 mph2.6 kmh 29.89 in1012.2 mb 0.00 in0.0 mm 0.00 in0.0 mm 0.10 in2.5 mm
10:11 PM 53.0°F11.7°C 52.7°F11.5°C 80% Calm Calm -- 29.88 in1011.9 mb 0.00 in0.0 mm 0.00 in0.0 mm 0.10 in2.5 mm
10:14 PM 53.6°F12.0°C 52.4°F11.3°C 79% 2.0 mph WSW3.2 kmh WSW 2.0 mph3.2 kmh 29.89 in1012.2 mb 0.00 in0.0 mm 0.00 in0.0 mm 0.10 in2.5 mm
10:17 PM 53.3°F11.8°C 52.7°F11.5°C 79% 1.6 mph W2.6 kmh W 1.6 mph2.6 kmh 29.89 in1012.2 mb 0.00 in0.0 mm 0.00 in0.0 mm 0.10 in2.5 mm
10:20 PM 53.3°F11.8°C 52.1°F11.2°C 78% 2.7 mph NNW4.3 kmh NNW 2.7 mph4.3 kmh 29.89 in1012.2 mb 0.00 in0.0 mm 0.00 in0.0 mm 0.10 in2.5 mm
10:23 PM 53.2°F11.8°C 52.4°F11.3°C 79% 0.8 mph WSW1.3 kmh WSW 0.8 mph1.3 kmh 29.89 in1012.2 mb 0.00 in0.0 mm 0.00 in0.0 mm 0.10 in2.5 mm
10:26 PM 53.0°F11.7°C 52.3°F11.3°C 78% 3.2 mph W5.1 kmh W 3.3 mph5.3 kmh 29.88 in1011.9 mb 0.00 in0.0 mm 0.00 in0.0 mm 0.10 in2.5 mm
10:29 PM 53.3°F11.8°C 52.2°F11.2°C 78% 2.0 mph NNW3.2 kmh NNW 2.0 mph3.2 kmh 29.89 in1012.2 mb 0.00 in0.0 mm 0.00 in0.0 mm 0.10 in2.5 mm
10:32 PM 53.3°F11.8°C 51.9°F11.1°C 77% 5.7 mph W9.2 kmh W 5.7 mph9.2 kmh 29.89 in1012.2 mb 0.00 in0.0 mm 0.00 in0.0 mm 0.10 in2.5 mm
10:35 PM 53.2°F11.8°C 52.0°F11.1°C 77% 3.2 mph WSW5.1 kmh WSW 3.3 mph5.3 kmh 29.88 in1011.9 mb 0.00 in0.0 mm 0.00 in0.0 mm 0.10 in2.5 mm
10:38 PM 53.5°F11.9°C 51.6°F10.9°C 76% 8.1 mph SW13.0 kmh SW 8.1 mph13.0 kmh 29.88 in1011.9 mb 0.00 in0.0 mm 0.00 in0.0 mm 0.10 in2.5 mm
10:41 PM 53.0°F11.7°C 51.7°F10.9°C 77% 3.5 mph NNW5.6 kmh NNW 3.5 mph5.6 kmh 29.88 in1011.9 mb 0.00 in0.0 mm 0.00 in0.0 mm 0.10 in2.5 mm
10:44 PM 53.2°F11.8°C 51.6°F10.9°C 76% 2.4 mph WSW3.9 kmh WSW 2.4 mph3.9 kmh 29.88 in1011.9 mb 0.00 in0.0 mm 0.00 in0.0 mm 0.10 in2.5 mm
10:47 PM 52.8°F11.6°C 51.6°F10.9°C 76% 4.8 mph NNW7.7 kmh NNW 4.9 mph7.9 kmh 29.88 in1011.9 mb 0.00 in0.0 mm 0.00 in0.0 mm 0.10 in2.5 mm
10:50 PM 52.8°F11.6°C 51.4°F10.8°C 75% 5.2 mph NNW8.4 kmh NNW 5.2 mph8.4 kmh 29.88 in1011.9 mb 0.00 in0.0 mm 0.00 in0.0 mm 0.10 in2.5 mm
10:53 PM 52.6°F11.4°C 51.6°F10.9°C 76% 6.7 mph W10.8 kmh W 6.8 mph10.9 kmh 29.88 in1011.9 mb 0.00 in0.0 mm 0.00 in0.0 mm 0.10 in2.5 mm
10:56 PM 52.7°F11.5°C 51.3°F10.7°C 75% 0.8 mph NNW1.3 kmh NNW 0.8 mph1.3 kmh 29.88 in1011.9 mb 0.00 in0.0 mm 0.00 in0.0 mm 0.10 in2.5 mm
10:59 PM 52.7°F11.5°C 51.3°F10.7°C 75% 1.2 mph WSW1.9 kmh WSW 1.2 mph1.9 kmh 29.88 in1011.9 mb 0.00 in0.0 mm 0.00 in0.0 mm 0.10 in2.5 mm
11:02 PM 52.5°F11.4°C 51.3°F10.7°C 75% 3.6 mph WSW5.8 kmh WSW 3.7 mph6.0 kmh 29.88 in1011.9 mb 0.00 in0.0 mm 0.00 in0.0 mm 0.00 in0.0 mm
11:05 PM 52.3°F11.3°C 51.2°F10.7°C 75% Calm Calm -- 29.88 in1011.9 mb 0.00 in0.0 mm 0.00 in0.0 mm 0.00 in0.0 mm
11:08 PM 52.4°F11.3°C 50.9°F10.5°C 75% 2.0 mph NNW3.2 kmh NNW 2.0 mph3.2 kmh 29.88 in1011.9 mb 0.00 in0.0 mm 0.00 in0.0 mm 0.00 in0.0 mm
11:11 PM 52.3°F11.3°C 51.1°F10.6°C 75% 3.6 mph WSW5.8 kmh WSW 3.6 mph5.8 kmh 29.89 in1012.2 mb 0.00 in0.0 mm 0.00 in0.0 mm 0.00 in0.0 mm
11:14 PM 51.9°F11.1°C 51.0°F10.6°C 75% Calm Calm -- 29.89 in1012.2 mb 0.00 in0.0 mm 0.00 in0.0 mm 0.00 in0.0 mm
11:17 PM 52.5°F11.4°C 51.0°F10.6°C 75% 0.4 mph SSW0.6 kmh SSW 0.4 mph0.6 kmh 29.88 in1011.9 mb 0.00 in0.0 mm 0.00 in0.0 mm 0.00 in0.0 mm
11:20 PM 51.6°F10.9°C 51.0°F10.6°C 75% Calm Calm -- 29.89 in1012.2 mb 0.00 in0.0 mm 0.00 in0.0 mm 0.00 in0.0 mm
11:23 PM 51.6°F10.9°C 51.0°F10.6°C 75% Calm Calm -- 29.89 in1012.2 mb 0.00 in0.0 mm 0.00 in0.0 mm 0.00 in0.0 mm
11:26 PM 51.7°F10.9°C 50.9°F10.5°C 75% 0.4 mph NNW0.6 kmh NNW 0.4 mph0.6 kmh 29.89 in1012.2 mb 0.00 in0.0 mm 0.00 in0.0 mm 0.00 in0.0 mm
11:29 PM 51.4°F10.8°C 50.8°F10.4°C 75% Calm Calm -- 29.89 in1012.2 mb 0.00 in0.0 mm 0.00 in0.0 mm 0.00 in0.0 mm
11:32 PM 51.0°F10.6°C 50.7°F10.4°C 75% Calm Calm -- 29.89 in1012.2 mb 0.00 in0.0 mm 0.00 in0.0 mm 0.00 in0.0 mm
11:35 PM 51.2°F10.7°C 50.7°F10.4°C 75% Calm Calm -- 29.89 in1012.2 mb 0.00 in0.0 mm 0.00 in0.0 mm 0.00 in0.0 mm
11:38 PM 51.2°F10.7°C 50.5°F10.3°C 75% Calm Calm -- 29.89 in1012.2 mb 0.00 in0.0 mm 0.00 in0.0 mm 0.00 in0.0 mm
11:41 PM 51.2°F10.7°C 50.7°F10.4°C 75% Calm Calm -- 29.89 in1012.2 mb 0.00 in0.0 mm 0.00 in0.0 mm 0.00 in0.0 mm
11:44 PM 51.2°F10.7°C 50.5°F10.3°C 75% Calm Calm -- 29.89 in1012.2 mb 0.00 in0.0 mm 0.00 in0.0 mm 0.00 in0.0 mm
11:47 PM 51.1°F10.6°C 50.5°F10.3°C 75% Calm Calm -- 29.89 in1012.2 mb 0.00 in0.0 mm 0.00 in0.0 mm 0.00 in0.0 mm
11:50 PM 50.9°F10.5°C 50.6°F10.3°C 76% Calm Calm -- 29.89 in1012.2 mb 0.00 in0.0 mm 0.00 in0.0 mm 0.00 in0.0 mm
11:53 PM 50.7°F10.4°C 50.5°F10.3°C 75% Calm Calm -- 29.89 in1012.2 mb 0.00 in0.0 mm 0.00 in0.0 mm 0.00 in0.0 mm
11:56 PM 50.5°F10.3°C 50.7°F10.4°C 76% Calm Calm -- 29.89 in1012.2 mb 0.00 in0.0 mm 0.00 in0.0 mm 0.00 in0.0 mm
11:59 PM 50.1°F10.1°C 50.4°F10.2°C 76% Calm Calm -- 29.89 in1012.2 mb 0.00 in0.0 mm 0.00 in0.0 mm 0.00 in0.0 mm